Observation data for Amarillo 15 North Northwest on 03/25/2019      Previous  Date       Current Mesonet Observations  Soil Data  Daily Summary Page  Observations in Plain Language
KAM3 250500Z 06009KT 09/04 A3016 RMK A01 T00870040  RH  072%=      5-min Rain = 0
KAM3 250501Z 06009KT 09/04 A3016 RMK A01 T00880040  RH  072%=      5-min Rain = 0
KAM3 250502Z 06008KT 09/04 A3016 RMK A01 T00880040  RH  072%=      5-min Rain = 0
KAM3 250503Z 06008KT 09/04 A3016 RMK A01 T00880040  RH  072%=      5-min Rain = 0
KAM3 250504Z 06008KT 09/04 A3017 RMK A01 T00870039  RH  072%=      5-min Rain = 0
KAM3 250505Z 06008KT 09/04 A3017 RMK A01 T00870039  RH  072%=      5-min Rain = 0
KAM3 250506Z 06008KT 09/04 A3017 RMK A01 T00870039  RH  072%=      5-min Rain = 0
KAM3 250507Z 06008KT 09/04 A3017 RMK A01 T00870039  RH  072%=      5-min Rain = 0
KAM3 250508Z 06008KT 09/04 A3017 RMK A01 T00860039  RH  072%=      5-min Rain = 0
KAM3 250509Z 06008KT 09/04 A3017 RMK A01 T00860039  RH  072%=      5-min Rain = 0
KAM3 250510Z 05008KT 09/04 A3017 RMK A01 T00860039  RH  072%=      5-min Rain = 0
KAM3 250511Z 05008KT 09/04 A3017 RMK A01 T00860038  RH  072%=      5-min Rain = 0
KAM3 250512Z 05008KT 09/04 A3017 RMK A01 T00850038  RH  072%=      5-min Rain = 0
KAM3 250513Z 06008KT 09/04 A3017 RMK A01 T00850038  RH  072%=      5-min Rain = 0
KAM3 250514Z 06008KT 08/04 A3017 RMK A01 T00840038  RH  072%=      5-min Rain = 0
KAM3 250515Z 05008KT 08/04 A3017 RMK A01 T00840037  RH  073%=      5-min Rain = 0
KAM3 250516Z 05008KT 08/04 A3017 RMK A01 T00830037  RH  073%=      5-min Rain = 0
KAM3 250517Z 05008KT 08/04 A3017 RMK A01 T00820037  RH  073%=      5-min Rain = 0
KAM3 250518Z 05008KT 08/04 A3017 RMK A01 T00820038  RH  073%=      5-min Rain = 0
KAM3 250519Z 05008KT 08/04 A3017 RMK A01 T00820037  RH  073%=      5-min Rain = 0
KAM3 250520Z 05008KT 08/04 A3017 RMK A01 T00820037  RH  073%=      5-min Rain = 0
KAM3 250521Z 06008KT 08/04 A3017 RMK A01 T00820037  RH  073%=      5-min Rain = 0
KAM3 250522Z 05008KT 08/04 A3017 RMK A01 T00820037  RH  073%=      5-min Rain = 0
KAM3 250523Z 05008KT 08/04 A3017 RMK A01 T00820037  RH  073%=      5-min Rain = 0
KAM3 250524Z 06008KT 08/04 A3017 RMK A01 T00830037  RH  073%=      5-min Rain = 0
KAM3 250525Z 05008KT 08/04 A3017 RMK A01 T00830037  RH  073%=      5-min Rain = 0
KAM3 250526Z 05008KT 08/04 A3017 RMK A01 T00820037  RH  073%=      5-min Rain = 0
KAM3 250527Z 05008KT 08/04 A3017 RMK A01 T00820038  RH  074%=      5-min Rain = 0
KAM3 250528Z 06008KT 08/04 A3017 RMK A01 T00820038  RH  074%=      5-min Rain = 0
KAM3 250529Z 06008KT 08/04 A3017 RMK A01 T00820038  RH  074%=      5-min Rain = 0
KAM3 250530Z 06008KT 08/04 A3017 RMK A01 T00810038  RH  074%=      5-min Rain = 0
KAM3 250531Z 06008KT 08/04 A3017 RMK A01 T00810037  RH  074%=      5-min Rain = 0
KAM3 250532Z 06008KT 08/04 A3017 RMK A01 T00810037  RH  074%=      5-min Rain = 0
KAM3 250533Z 06008KT 08/04 A3017 RMK A01 T00810037  RH  074%=      5-min Rain = 0
KAM3 250534Z 06008KT 08/04 A3017 RMK A01 T00810037  RH  074%=      5-min Rain = 0
KAM3 250535Z 06008KT 08/04 A3017 RMK A01 T00800037  RH  074%=      5-min Rain = 0
KAM3 250536Z 06008KT 08/04 A3017 RMK A01 T00800037  RH  074%=      5-min Rain = 0
KAM3 250537Z 06008KT 08/04 A3017 RMK A01 T00800037  RH  074%=      5-min Rain = 0
KAM3 250538Z 05008KT 08/04 A3017 RMK A01 T00810037  RH  074%=      5-min Rain = 0
KAM3 250539Z 05008KT 08/04 A3017 RMK A01 T00820037  RH  074%=      5-min Rain = 0
KAM3 250540Z 05008KT 08/04 A3017 RMK A01 T00820037  RH  073%=      5-min Rain = 0
KAM3 250541Z 05008KT 08/04 A3017 RMK A01 T00820037  RH  073%=      5-min Rain = 0
KAM3 250542Z 05009KT 08/04 A3017 RMK A01 T00820037  RH  073%=      5-min Rain = 0
KAM3 250543Z 05008KT 08/04 A3017 RMK A01 T00820037  RH  073%=      5-min Rain = 0
KAM3 250544Z 05009KT 08/04 A3017 RMK A01 T00820037  RH  073%=      5-min Rain = 0
KAM3 250545Z 05008KT 08/04 A3017 RMK A01 T00820037  RH  073%=      5-min Rain = 0
KAM3 250546Z 05008KT 08/04 A3017 RMK A01 T00810037  RH  074%=      5-min Rain = 0
KAM3 250547Z 05008KT 08/04 A3017 RMK A01 T00810036  RH  074%=      5-min Rain = 0
KAM3 250548Z 05008KT 08/04 A3017 RMK A01 T00800036  RH  074%=      5-min Rain = 0
KAM3 250549Z 04008KT 08/04 A3017 RMK A01 T00800036  RH  074%=      5-min Rain = 0
KAM3 250550Z 04008KT 08/04 A3018 RMK A01 T00800036  RH  074%=      5-min Rain = 0
KAM3 250551Z 04008KT 08/04 A3018 RMK A01 T00800036  RH  074%=      5-min Rain = 0
KAM3 250552Z 04009KT 08/04 A3018 RMK A01 T00790036  RH  074%=      5-min Rain = 0
KAM3 250553Z 04009KT 08/04 A3018 RMK A01 T00800036  RH  074%=      5-min Rain = 0
KAM3 250554Z 04009KT 08/04 A3018 RMK A01 T00800036  RH  074%=      5-min Rain = 0
KAM3 250555Z 04009KT 08/04 A3018 RMK A01 T00790036  RH  074%=      5-min Rain = 0
KAM3 250556Z 04009KT 08/04 A3018 RMK A01 T00790036  RH  074%=      5-min Rain = 0
KAM3 250557Z 03008KT 08/04 A3018 RMK A01 T00790036  RH  074%=      5-min Rain = 0
KAM3 250558Z 03008KT 08/04 A3018 RMK A01 T00790036  RH  074%=      5-min Rain = 0
KAM3 250559Z 03008KT 08/04 A3018 RMK A01 T00790036  RH  074%=      5-min Rain = 0
KAM3 250600Z 03008KT 08/04 A3018 RMK A01 T00790036  RH  074%=      5-min Rain = 0
KAM3 250601Z 03009KT 08/04 A3018 RMK A01 T00790035  RH  074%=      5-min Rain = 0
KAM3 250602Z 03009KT 08/03 A3018 RMK A01 T00770034  RH  074%=      5-min Rain = 0
KAM3 250603Z 04009KT 08/03 A3018 RMK A01 T00760034  RH  075%=      5-min Rain = 0
KAM3 250604Z 04008KT 08/03 A3018 RMK A01 T00750034  RH  075%=      5-min Rain = 0
KAM3 250605Z 04008KT 08/04 A3018 RMK A01 T00750035  RH  076%=      5-min Rain = 0
KAM3 250606Z 04009KT 08/04 A3018 RMK A01 T00760036  RH  076%=      5-min Rain = 0
KAM3 250607Z 04009KT 08/04 A3019 RMK A01 T00770036  RH  075%=      5-min Rain = 0
KAM3 250608Z 04009KT 08/04 A3019 RMK A01 T00780036  RH  075%=      5-min Rain = 0
KAM3 250609Z 03009KT 08/04 A3019 RMK A01 T00780037  RH  075%=      5-min Rain = 0
KAM3 250610Z 03009KT 08/04 A3019 RMK A01 T00780037  RH  075%=      5-min Rain = 0
KAM3 250611Z 03009KT 08/04 A3019 RMK A01 T00780038  RH  076%=      5-min Rain = 0
KAM3 250612Z 04009KT 08/04 A3019 RMK A01 T00780038  RH  076%=      5-min Rain = 0
KAM3 250613Z 04009KT 08/04 A3019 RMK A01 T00770037  RH  076%=      5-min Rain = 0
KAM3 250614Z 04009KT 08/04 A3019 RMK A01 T00770037  RH  076%=      5-min Rain = 0
KAM3 250615Z 04009KT 08/04 A3019 RMK A01 T00760037  RH  076%=      5-min Rain = 0
KAM3 250616Z 04008KT 08/04 A3019 RMK A01 T00760037  RH  076%=      5-min Rain = 0
KAM3 250617Z 04008KT 08/04 A3019 RMK A01 T00770037  RH  076%=      5-min Rain = 0
KAM3 250618Z 04008KT 08/04 A3019 RMK A01 T00770037  RH  076%=      5-min Rain = 0
KAM3 250619Z 04008KT 08/04 A3019 RMK A01 T00770037  RH  076%=      5-min Rain = 0
KAM3 250620Z 04008KT 08/04 A3019 RMK A01 T00770037  RH  075%=      5-min Rain = 0
KAM3 250621Z 04007KT 08/04 A3019 RMK A01 T00770036  RH  075%=      5-min Rain = 0
KAM3 250622Z 04007KT 08/04 A3019 RMK A01 T00770036  RH  075%=      5-min Rain = 0
KAM3 250623Z 05007KT 08/04 A3019 RMK A01 T00770036  RH  075%=      5-min Rain = 0
KAM3 250624Z 05007KT 08/04 A3019 RMK A01 T00770036  RH  075%=      5-min Rain = 0
KAM3 250625Z 05007KT 08/04 A3019 RMK A01 T00770036  RH  075%=      5-min Rain = 0
KAM3 250626Z 05007KT 08/04 A3019 RMK A01 T00780036  RH  075%=      5-min Rain = 0
KAM3 250627Z 05007KT 08/04 A3019 RMK A01 T00780036  RH  075%=      5-min Rain = 0
KAM3 250628Z 05007KT 08/04 A3019 RMK A01 T00770036  RH  075%=      5-min Rain = 0
KAM3 250629Z 05007KT 08/04 A3019 RMK A01 T00770036  RH  075%=      5-min Rain = 0
KAM3 250630Z 05006KT 08/04 A3019 RMK A01 T00770036  RH  075%=      5-min Rain = 0
KAM3 250631Z 05006KT 08/04 A3019 RMK A01 T00770036  RH  075%=      5-min Rain = 0
KAM3 250632Z 05006KT 08/04 A3019 RMK A01 T00760035  RH  075%=      5-min Rain = 0
KAM3 250633Z 06006KT 08/04 A3019 RMK A01 T00750035  RH  075%=      5-min Rain = 0
KAM3 250634Z 06006KT 08/04 A3019 RMK A01 T00750035  RH  076%=      5-min Rain = 0
KAM3 250635Z 06006KT 08/04 A3019 RMK A01 T00750035  RH  076%=      5-min Rain = 0
KAM3 250636Z 06007KT 08/04 A3019 RMK A01 T00760036  RH  076%=      5-min Rain = 0
KAM3 250637Z 06007KT 08/04 A3019 RMK A01 T00760036  RH  076%=      5-min Rain = 0
KAM3 250638Z 06006KT 08/04 A3019 RMK A01 T00770036  RH  075%=      5-min Rain = 0
KAM3 250639Z 06006KT 08/04 A3019 RMK A01 T00770036  RH  075%=      5-min Rain = 0
KAM3 250640Z 06006KT 08/04 A3019 RMK A01 T00770036  RH  075%=      5-min Rain = 0
KAM3 250641Z 06006KT 08/04 A3019 RMK A01 T00770036  RH  075%=      5-min Rain = 0
KAM3 250642Z 06006KT 08/04 A3019 RMK A01 T00770036  RH  075%=      5-min Rain = 0
KAM3 250643Z 06006KT 08/04 A3019 RMK A01 T00770036  RH  075%=      5-min Rain = 0
KAM3 250644Z 06005KT 08/04 A3019 RMK A01 T00770036  RH  075%=      5-min Rain = 0
KAM3 250645Z 07006KT 08/04 A3019 RMK A01 T00770036  RH  075%=      5-min Rain = 0
KAM3 250646Z 07006KT 08/04 A3019 RMK A01 T00770036  RH  076%=      5-min Rain = 0
KAM3 250647Z 07006KT 08/04 A3019 RMK A01 T00770037  RH  076%=      5-min Rain = 0
KAM3 250648Z 07006KT 08/04 A3019 RMK A01 T00780036  RH  075%=      5-min Rain = 0
KAM3 250649Z 07006KT 08/04 A3019 RMK A01 T00770035  RH  075%=      5-min Rain = 0
KAM3 250650Z 07006KT 08/04 A3019 RMK A01 T00760036  RH  076%=      5-min Rain = 0
KAM3 250651Z 07006KT 08/04 A3019 RMK A01 T00760037  RH  076%=      5-min Rain = 0
KAM3 250652Z 07006KT 08/04 A3019 RMK A01 T00770036  RH  075%=      5-min Rain = 0
KAM3 250653Z 07006KT 08/04 A3019 RMK A01 T00770036  RH  075%=      5-min Rain = 0
KAM3 250654Z 07006KT 08/04 A3019 RMK A01 T00770036  RH  075%=      5-min Rain = 0
KAM3 250655Z 07006KT 08/04 A3019 RMK A01 T00770036  RH  075%=      5-min Rain = 0
KAM3 250656Z 06006KT 08/04 A3019 RMK A01 T00770036  RH  075%=      5-min Rain = 0
KAM3 250657Z 06006KT 08/04 A3019 RMK A01 T00770036  RH  075%=      5-min Rain = 0
KAM3 250658Z 07007KT 08/04 A3019 RMK A01 T00760036  RH  076%=      5-min Rain = 0
KAM3 250659Z 07007KT 08/04 A3019 RMK A01 T00760036  RH  076%=      5-min Rain = 0
KAM3 250700Z 07006KT 08/04 A3019 RMK A01 T00760036  RH  076%=      5-min Rain = 0
KAM3 250701Z 07006KT 08/04 A3019 RMK A01 T00750035  RH  076%=      5-min Rain = 0
KAM3 250702Z 07006KT 07/04 A3019 RMK A01 T00740036  RH  077%=      5-min Rain = 0
KAM3 250703Z 07006KT 07/04 A302 RMK A01 T00740037  RH  077%=      5-min Rain = 0
KAM3 250704Z 07005KT 08/04 A302 RMK A01 T00750037  RH  077%=      5-min Rain = 0
KAM3 250705Z 07006KT 08/04 A302 RMK A01 T00750037  RH  077%=      5-min Rain = 0
KAM3 250706Z 07005KT 08/04 A302 RMK A01 T00760037  RH  077%=      5-min Rain = 0
KAM3 250707Z 07005KT 08/04 A302 RMK A01 T00760038  RH  077%=      5-min Rain = 0
KAM3 250708Z 07006KT 08/04 A302 RMK A01 T00770038  RH  076%=      5-min Rain = 0
KAM3 250709Z 07005KT 08/04 A302 RMK A01 T00780038  RH  076%=      5-min Rain = 0
KAM3 250710Z 07006KT 08/04 A302 RMK A01 T00780038  RH  076%=      5-min Rain = 0
KAM3 250711Z 08006KT 08/04 A302 RMK A01 T00780038  RH  076%=      5-min Rain = 0
KAM3 250712Z 07006KT 08/04 A302 RMK A01 T00790038  RH  076%=      5-min Rain = 0
KAM3 250713Z 07006KT 08/04 A302 RMK A01 T00790039  RH  076%=      5-min Rain = 0
KAM3 250714Z 07005KT 08/04 A302 RMK A01 T00800039  RH  075%=      5-min Rain = 0
KAM3 250715Z 07005KT 08/04 A302 RMK A01 T00790038  RH  075%=      5-min Rain = 0
KAM3 250716Z 07006KT 08/04 A302 RMK A01 T00800039  RH  075%=      5-min Rain = 0
KAM3 250717Z 07005KT 08/04 A302 RMK A01 T00800039  RH  075%=      5-min Rain = 0
KAM3 250718Z 08005KT 08/04 A302 RMK A01 T00790039  RH  075%=      5-min Rain = 0
KAM3 250719Z 08005KT 08/04 A302 RMK A01 T00790038  RH  075%=      5-min Rain = 0
KAM3 250720Z 08005KT 08/04 A302 RMK A01 T00790038  RH  075%=      5-min Rain = 0
KAM3 250721Z 08005KT 08/04 A302 RMK A01 T00790038  RH  076%=      5-min Rain = 0
KAM3 250722Z 08006KT 08/04 A302 RMK A01 T00790039  RH  076%=      5-min Rain = 0
KAM3 250723Z 08006KT 08/04 A3019 RMK A01 T00790039  RH  076%=      5-min Rain = 0
KAM3 250724Z 08006KT 08/04 A3019 RMK A01 T00790038  RH  075%=      5-min Rain = 0
KAM3 250725Z 08006KT 08/04 A302 RMK A01 T00780038  RH  076%=      5-min Rain = 0
KAM3 250726Z 08006KT 08/04 A302 RMK A01 T00780038  RH  076%=      5-min Rain = 0
KAM3 250727Z 07006KT 08/04 A302 RMK A01 T00770038  RH  076%=      5-min Rain = 0
KAM3 250728Z 07005KT 08/04 A302 RMK A01 T00770038  RH  077%=      5-min Rain = 0
KAM3 250729Z 07005KT 08/04 A302 RMK A01 T00770039  RH  077%=      5-min Rain = 0
KAM3 250730Z 07005KT 08/04 A302 RMK A01 T00770038  RH  077%=      5-min Rain = 0
KAM3 250731Z 07005KT 08/04 A302 RMK A01 T00760038  RH  077%=      5-min Rain = 0
KAM3 250732Z 07005KT 08/04 A302 RMK A01 T00760039  RH  077%=      5-min Rain = 0
KAM3 250733Z 07005KT 08/04 A302 RMK A01 T00760039  RH  077%=      5-min Rain = 0
KAM3 250734Z 07005KT 08/04 A302 RMK A01 T00760039  RH  077%=      5-min Rain = 0
KAM3 250735Z 07005KT 08/04 A302 RMK A01 T00770040  RH  077%=      5-min Rain = 0
KAM3 250736Z 08005KT 08/04 A302 RMK A01 T00780039  RH  077%=      5-min Rain = 0
KAM3 250737Z 08005KT 08/04 A302 RMK A01 T00790039  RH  076%=      5-min Rain = 0
KAM3 250738Z 08005KT 08/04 A302 RMK A01 T00790039  RH  076%=      5-min Rain = 0
KAM3 250739Z 07005KT 08/04 A302 RMK A01 T00790040  RH  076%=      5-min Rain = 0
KAM3 250740Z 07006KT 08/04 A302 RMK A01 T00790040  RH  076%=      5-min Rain = 0
KAM3 250741Z 07005KT 08/04 A302 RMK A01 T00790040  RH  076%=      5-min Rain = 0
KAM3 250742Z 07006KT 08/04 A302 RMK A01 T00800040  RH  076%=      5-min Rain = 0
KAM3 250743Z 07006KT 08/04 A302 RMK A01 T00790039  RH  076%=      5-min Rain = 0
KAM3 250744Z 07005KT 08/04 A302 RMK A01 T00780039  RH  076%=      5-min Rain = 0
KAM3 250745Z 07005KT 08/04 A302 RMK A01 T00770038  RH  076%=      5-min Rain = 0
KAM3 250746Z 07005KT 08/04 A302 RMK A01 T00770039  RH  077%=      5-min Rain = 0
KAM3 250747Z 07005KT 08/04 A302 RMK A01 T00760039  RH  077%=      5-min Rain = 0
KAM3 250748Z 07005KT 08/04 A302 RMK A01 T00750039  RH  078%=      5-min Rain = 0
KAM3 250749Z 07005KT 08/04 A302 RMK A01 T00760040  RH  078%=      5-min Rain = 0
KAM3 250750Z 07005KT 08/04 A302 RMK A01 T00770040  RH  077%=      5-min Rain = 0
KAM3 250751Z 07006KT 08/04 A302 RMK A01 T00770040  RH  077%=      5-min Rain = 0
KAM3 250752Z 07006KT 08/04 A302 RMK A01 T00770039  RH  077%=      5-min Rain = 0
KAM3 250753Z 07006KT 08/04 A302 RMK A01 T00750038  RH  077%=      5-min Rain = 0
KAM3 250754Z 07006KT 07/04 A302 RMK A01 T00740037  RH  078%=      5-min Rain = 0
KAM3 250755Z 07006KT 07/04 A302 RMK A01 T00730037  RH  078%=      5-min Rain = 0
KAM3 250756Z 07006KT 07/04 A302 RMK A01 T00720037  RH  079%=      5-min Rain = 0
KAM3 250757Z 07006KT 07/04 A302 RMK A01 T00710037  RH  079%=      5-min Rain = 0
KAM3 250758Z 07007KT 07/04 A302 RMK A01 T00690037  RH  080%=      5-min Rain = 0
KAM3 250759Z 07006KT 07/04 A302 RMK A01 T00680037  RH  080%=      5-min Rain = 0
KAM3 250800Z 06006KT 07/04 A302 RMK A01 T00670037  RH  081%=      5-min Rain = 0
KAM3 250801Z 06007KT 07/04 A302 RMK A01 T00670038  RH  082%=      5-min Rain = 0
KAM3 250802Z 06007KT 07/04 A302 RMK A01 T00670038  RH  082%=      5-min Rain = 0
KAM3 250803Z 06007KT 07/04 A302 RMK A01 T00670038  RH  082%=      5-min Rain = 0
KAM3 250804Z 06007KT 07/04 A302 RMK A01 T00670038  RH  082%=      5-min Rain = 0
KAM3 250805Z 06007KT 07/04 A302 RMK A01 T00670038  RH  082%=      5-min Rain = 0
KAM3 250806Z 06007KT 07/04 A302 RMK A01 T00670037  RH  081%=      5-min Rain = 0
KAM3 250807Z 06007KT 07/04 A302 RMK A01 T00660038  RH  082%=      5-min Rain = 0
KAM3 250808Z 06006KT 07/04 A302 RMK A01 T00660038  RH  082%=      5-min Rain = 0
KAM3 250809Z 06006KT 07/04 A302 RMK A01 T00660038  RH  082%=      5-min Rain = 0
KAM3 250810Z 06006KT 07/04 A302 RMK A01 T00660038  RH  082%=      5-min Rain = 0
KAM3 250811Z 06006KT 07/04 A302 RMK A01 T00660038  RH  082%=      5-min Rain = 0
KAM3 250812Z 06006KT 07/04 A302 RMK A01 T00660038  RH  082%=      5-min Rain = 0
KAM3 250813Z 06006KT 07/04 A302 RMK A01 T00660038  RH  082%=      5-min Rain = 0
KAM3 250814Z 06006KT 07/04 A302 RMK A01 T00650037  RH  082%=      5-min Rain = 0
KAM3 250815Z 06006KT 07/04 A302 RMK A01 T00650038  RH  083%=      5-min Rain = 0
KAM3 250816Z 07006KT 07/04 A302 RMK A01 T00650039  RH  083%=      5-min Rain = 0
KAM3 250817Z 08005KT 07/04 A302 RMK A01 T00660040  RH  083%=      5-min Rain = 0
KAM3 250818Z 08005KT 07/04 A302 RMK A01 T00670040  RH  083%=      5-min Rain = 0
KAM3 250819Z 08005KT 07/04 A302 RMK A01 T00680041  RH  083%=      5-min Rain = 0
KAM3 250820Z 08005KT 07/04 A302 RMK A01 T00690041  RH  082%=      5-min Rain = 0
KAM3 250821Z 09005KT 07/04 A302 RMK A01 T00700042  RH  082%=      5-min Rain = 0
KAM3 250822Z 09005KT 07/04 A302 RMK A01 T00710041  RH  081%=      5-min Rain = 0
KAM3 250823Z 10005KT 07/04 A302 RMK A01 T00720041  RH  081%=      5-min Rain = 0
KAM3 250824Z 10005KT 07/04 A302 RMK A01 T00700040  RH  081%=      5-min Rain = 0
KAM3 250825Z 11005KT 07/04 A302 RMK A01 T00690039  RH  081%=      5-min Rain = 0
KAM3 250826Z 11005KT 07/04 A302 RMK A01 T00680039  RH  082%=      5-min Rain = 0
KAM3 250827Z 10005KT 07/04 A302 RMK A01 T00680040  RH  082%=      5-min Rain = 0
KAM3 250828Z 10005KT 07/04 A302 RMK A01 T00680040  RH  082%=      5-min Rain = 0
KAM3 250829Z 10005KT 07/04 A302 RMK A01 T00680040  RH  082%=      5-min Rain = 0
KAM3 250830Z 10005KT 07/04 A302 RMK A01 T00680039  RH  082%=      5-min Rain = 0
KAM3 250831Z 10005KT 07/04 A302 RMK A01 T00680039  RH  082%=      5-min Rain = 0
KAM3 250832Z 10004KT 07/04 A302 RMK A01 T00680039  RH  082%=      5-min Rain = 0
KAM3 250833Z 09004KT 07/04 A302 RMK A01 T00670039  RH  082%=      5-min Rain = 0
KAM3 250834Z 08004KT 07/04 A302 RMK A01 T00670038  RH  082%=      5-min Rain = 0
KAM3 250835Z 08004KT 07/04 A302 RMK A01 T00660038  RH  083%=      5-min Rain = 0
KAM3 250836Z 08004KT 07/04 A302 RMK A01 T00650040  RH  084%=      5-min Rain = 0
KAM3 250837Z 08004KT 07/04 A302 RMK A01 T00660041  RH  084%=      5-min Rain = 0
KAM3 250838Z 08004KT 07/04 A302 RMK A01 T00680041  RH  083%=      5-min Rain = 0
KAM3 250839Z 08004KT 07/04 A302 RMK A01 T00700042  RH  083%=      5-min Rain = 0
KAM3 250840Z 08004KT 07/04 A302 RMK A01 T00710042  RH  082%=      5-min Rain = 0
KAM3 250841Z 09004KT 07/04 A302 RMK A01 T00720042  RH  081%=      5-min Rain = 0
KAM3 250842Z 09004KT 07/04 A302 RMK A01 T00720042  RH  081%=      5-min Rain = 0
KAM3 250843Z 09005KT 07/04 A302 RMK A01 T00730042  RH  081%=      5-min Rain = 0
KAM3 250844Z 10005KT 07/04 A302 RMK A01 T00730042  RH  080%=      5-min Rain = 0
KAM3 250845Z 10005KT 07/04 A302 RMK A01 T00730042  RH  080%=      5-min Rain = 0
KAM3 250846Z 10005KT 07/04 A302 RMK A01 T00730041  RH  080%=      5-min Rain = 0
KAM3 250847Z 10004KT 07/04 A302 RMK A01 T00730041  RH  081%=      5-min Rain = 0
KAM3 250848Z 10004KT 07/04 A302 RMK A01 T00730042  RH  081%=      5-min Rain = 0
KAM3 250849Z 10004KT 07/04 A302 RMK A01 T00730041  RH  081%=      5-min Rain = 0
KAM3 250850Z 10004KT 07/04 A302 RMK A01 T00730042  RH  081%=      5-min Rain = 0
KAM3 250851Z 10004KT 07/04 A302 RMK A01 T00730042  RH  081%=      5-min Rain = 0
KAM3 250852Z 10003KT 07/04 A302 RMK A01 T00730042  RH  081%=      5-min Rain = 0
KAM3 250853Z 10003KT 07/04 A302 RMK A01 T00730042  RH  081%=      5-min Rain = 0
KAM3 250854Z 11003KT 07/04 A302 RMK A01 T00730042  RH  081%=      5-min Rain = 0
KAM3 250855Z 11004KT 07/04 A302 RMK A01 T00740042  RH  080%=      5-min Rain = 0
KAM3 250856Z 11004KT 07/04 A302 RMK A01 T00740042  RH  080%=      5-min Rain = 0
KAM3 250857Z 12004KT 07/04 A302 RMK A01 T00740042  RH  080%=      5-min Rain = 0
KAM3 250858Z 13004KT 07/04 A3019 RMK A01 T00730041  RH  080%=      5-min Rain = 0
KAM3 250859Z 13004KT 07/04 A3019 RMK A01 T00720041  RH  081%=      5-min Rain = 0
KAM3 250900Z 13004KT 07/04 A3019 RMK A01 T00710041  RH  081%=      5-min Rain = 0
KAM3 250901Z 13004KT 07/04 A3019 RMK A01 T00710041  RH  081%=      5-min Rain = 0
KAM3 250902Z 13004KT 07/04 A3019 RMK A01 T00700041  RH  082%=      5-min Rain = 0
KAM3 250903Z 13004KT 07/04 A3019 RMK A01 T00700041  RH  082%=      5-min Rain = 0
KAM3 250904Z 13003KT 07/04 A3019 RMK A01 T00690041  RH  082%=      5-min Rain = 0
KAM3 250905Z 13003KT 07/04 A3019 RMK A01 T00700041  RH  082%=      5-min Rain = 0
KAM3 250906Z 13003KT 07/04 A3019 RMK A01 T00690041  RH  082%=      5-min Rain = 0
KAM3 250907Z 13003KT 07/04 A3019 RMK A01 T00690041  RH  082%=      5-min Rain = 0
KAM3 250908Z 13002KT 07/04 A3019 RMK A01 T00690041  RH  082%=      5-min Rain = 0
KAM3 250909Z 12002KT 07/04 A3019 RMK A01 T00690041  RH  083%=      5-min Rain = 0
KAM3 250910Z 12003KT 07/04 A3019 RMK A01 T00690041  RH  083%=      5-min Rain = 0
KAM3 250911Z 13003KT 07/04 A3019 RMK A01 T00690041  RH  082%=      5-min Rain = 0
KAM3 250912Z 13003KT 07/04 A3019 RMK A01 T00690040  RH  082%=      5-min Rain = 0
KAM3 250913Z 13003KT 07/04 A3019 RMK A01 T00680040  RH  082%=      5-min Rain = 0
KAM3 250914Z 13003KT 07/04 A3019 RMK A01 T00690041  RH  083%=      5-min Rain = 0
KAM3 250915Z 13003KT 07/04 A3019 RMK A01 T00680041  RH  083%=      5-min Rain = 0
KAM3 250916Z 13002KT 07/04 A3019 RMK A01 T00680041  RH  083%=      5-min Rain = 0
KAM3 250917Z 12002KT 07/04 A3019 RMK A01 T00680040  RH  083%=      5-min Rain = 0
KAM3 250918Z 11002KT 07/04 A3019 RMK A01 T00670040  RH  083%=      5-min Rain = 0
KAM3 250919Z 09002KT 07/04 A302 RMK A01 T00660040  RH  084%=      5-min Rain = 0
KAM3 250920Z 09002KT 07/04 A302 RMK A01 T00650041  RH  084%=      5-min Rain = 0
KAM3 250921Z 09001KT 07/04 A302 RMK A01 T00650041  RH  085%=      5-min Rain = 0
KAM3 250922Z 09001KT 07/04 A302 RMK A01 T00660041  RH  084%=      5-min Rain = 0
KAM3 250923Z 09001KT 07/04 A302 RMK A01 T00660037  RH  082%=      5-min Rain = 0
KAM3 250924Z 09001KT 06/04 A302 RMK A01 T00630035  RH  082%=      5-min Rain = 0
KAM3 250925Z 09001KT 06/04 A302 RMK A01 T00610037  RH  084%=      5-min Rain = 0
KAM3 250926Z 09001KT 06/04 A302 RMK A01 T00610038  RH  086%=      5-min Rain = 0
KAM3 250927Z 09001KT 06/04 A302 RMK A01 T00610042  RH  087%=      5-min Rain = 0
KAM3 250928Z 09001KT 06/04 A302 RMK A01 T00640044  RH  087%=      5-min Rain = 0
KAM3 250929Z 09001KT 07/05 A302 RMK A01 T00660045  RH  086%=      5-min Rain = 0
KAM3 250930Z 09001KT 07/04 A302 RMK A01 T00670044  RH  085%=      5-min Rain = 0
KAM3 250931Z 34001KT 07/04 A302 RMK A01 T00680041  RH  083%=      5-min Rain = 0
KAM3 250932Z 35002KT 07/04 A302 RMK A01 T00660040  RH  083%=      5-min Rain = 0
KAM3 250933Z 34002KT 07/04 A302 RMK A01 T00650040  RH  084%=      5-min Rain = 0
KAM3 250934Z 34002KT 06/04 A302 RMK A01 T00640037  RH  083%=      5-min Rain = 0
KAM3 250935Z 34002KT 06/04 A302 RMK A01 T00620037  RH  084%=      5-min Rain = 0
KAM3 250936Z 34002KT 06/04 A302 RMK A01 T00600037  RH  085%=      5-min Rain = 0
KAM3 250937Z 34001KT 06/04 A302 RMK A01 T00590038  RH  086%=      5-min Rain = 0
KAM3 250938Z 34001KT 06/04 A302 RMK A01 T00580039  RH  088%=      5-min Rain = 0
KAM3 250939Z 00000KT 06/04 A302 RMK A01 T00580041  RH  089%=      5-min Rain = 0
KAM3 250940Z 34000KT 06/04 A302 RMK A01 T00580042  RH  090%=      5-min Rain = 0
KAM3 250941Z 34001KT 06/04 A302 RMK A01 T00580043  RH  090%=      5-min Rain = 0
KAM3 250942Z 34001KT 06/04 A302 RMK A01 T00580042  RH  090%=      5-min Rain = 0
KAM3 250943Z 34001KT 06/04 A302 RMK A01 T00580044  RH  091%=      5-min Rain = 0
KAM3 250944Z 34000KT 06/05 A302 RMK A01 T00590045  RH  091%=      5-min Rain = 0
KAM3 250945Z 34000KT 06/05 A302 RMK A01 T00590045  RH  090%=      5-min Rain = 0
KAM3 250946Z 34001KT 06/04 A3021 RMK A01 T00600044  RH  090%=      5-min Rain = 0
KAM3 250947Z 34000KT 06/04 A3021 RMK A01 T00600042  RH  088%=      5-min Rain = 0
KAM3 250948Z 34000KT 06/04 A3021 RMK A01 T00590041  RH  088%=      5-min Rain = 0
KAM3 250949Z 34001KT 06/04 A3021 RMK A01 T00580041  RH  089%=      5-min Rain = 0
KAM3 250950Z 34001KT 06/04 A3021 RMK A01 T00570038  RH  088%=      5-min Rain = 0
KAM3 250951Z 34001KT 06/04 A3021 RMK A01 T00550036  RH  088%=      5-min Rain = 0
KAM3 250952Z 34001KT 05/04 A3021 RMK A01 T00530037  RH  089%=      5-min Rain = 0
KAM3 250953Z 34000KT 05/04 A3021 RMK A01 T00530039  RH  091%=      5-min Rain = 0
KAM3 250954Z 30002KT 05/04 A3021 RMK A01 T00520040  RH  092%=      5-min Rain = 0
KAM3 250955Z 29003KT 05/04 A3021 RMK A01 T00510038  RH  091%=      5-min Rain = 0
KAM3 250956Z 30003KT 05/04 A3021 RMK A01 T00500037  RH  091%=      5-min Rain = 0
KAM3 250957Z 30003KT 05/04 A3021 RMK A01 T00480036  RH  092%=      5-min Rain = 0
KAM3 250958Z 30002KT 05/04 A3021 RMK A01 T00470037  RH  093%=      5-min Rain = 0
KAM3 250959Z 30002KT 05/04 A3021 RMK A01 T00460039  RH  095%=      5-min Rain = 0
KAM3 251000Z 30004KT 05/04 A3021 RMK A01 T00450040  RH  096%=      5-min Rain = 0
KAM3 251001Z 30004KT 05/04 A3021 RMK A01 T00450041  RH  097%=      5-min Rain = 0
KAM3 251002Z 31004KT 05/04 A3021 RMK A01 T00450042  RH  098%=      5-min Rain = 0
KAM3 251003Z 31005KT 04/04 A3021 RMK A01 T00440044  RH  099%=      5-min Rain = 0
KAM3 251004Z 31005KT 04/04 A3021 RMK A01 T00440044  RH  100%=      5-min Rain = 0
KAM3 251005Z 31005KT 05/05 A3021 RMK A01 T00460046  RH  100%=      5-min Rain = 0
KAM3 251006Z 31006KT 05/05 A3021 RMK A01 T00470047  RH  100%=      5-min Rain = 0
KAM3 251007Z 31005KT 05/05 A3021 RMK A01 T00480047  RH  099%=      5-min Rain = 0
KAM3 251008Z 31005KT 05/04 A3021 RMK A01 T00490044  RH  097%=      5-min Rain = 0
KAM3 251009Z 31005KT 05/04 A3021 RMK A01 T00490044  RH  097%=      5-min Rain = 0
KAM3 251010Z 31005KT 05/04 A3021 RMK A01 T00490044  RH  096%=      5-min Rain = 0
KAM3 251011Z 32005KT 05/04 A3021 RMK A01 T00480042  RH  096%=      5-min Rain = 0
KAM3 251012Z 32005KT 05/05 A3021 RMK A01 T00480045  RH  098%=      5-min Rain = 0
KAM3 251013Z 32005KT 05/05 A3021 RMK A01 T00480045  RH  098%=      5-min Rain = 0
KAM3 251014Z 31005KT 05/04 A3021 RMK A01 T00480044  RH  097%=      5-min Rain = 0
KAM3 251015Z 32005KT 05/04 A3021 RMK A01 T00480044  RH  097%=      5-min Rain = 0
KAM3 251016Z 32005KT 05/05 A3021 RMK A01 T00480045  RH  098%=      5-min Rain = 0
KAM3 251017Z 31005KT 05/05 A3021 RMK A01 T00480045  RH  098%=      5-min Rain = 0
KAM3 251018Z 31004KT 05/05 A3021 RMK A01 T00480045  RH  098%=      5-min Rain = 0
KAM3 251019Z 31004KT 05/05 A3021 RMK A01 T00480046  RH  099%=      5-min Rain = 0
KAM3 251020Z 31004KT 05/05 A3021 RMK A01 T00470046  RH  099%=      5-min Rain = 0
KAM3 251021Z 31004KT 05/05 A3022 RMK A01 T00480046  RH  099%=      5-min Rain = 0
KAM3 251022Z 30004KT 05/05 A3022 RMK A01 T00480046  RH  099%=      5-min Rain = 0
KAM3 251023Z 30004KT 05/05 A3022 RMK A01 T00480046  RH  098%=      5-min Rain = 0
KAM3 251024Z 30005KT 05/05 A3022 RMK A01 T00490046  RH  098%=      5-min Rain = 0
KAM3 251025Z 30005KT 05/05 A3022 RMK A01 T00480045  RH  098%=      5-min Rain = 0
KAM3 251026Z 30004KT 05/05 A3022 RMK A01 T00490045  RH  098%=      5-min Rain = 0
KAM3 251027Z 30004KT 05/05 A3022 RMK A01 T00480045  RH  098%=      5-min Rain = 0
KAM3 251028Z 30004KT 05/05 A3022 RMK A01 T00480045  RH  098%=      5-min Rain = 0
KAM3 251029Z 29004KT 05/05 A3022 RMK A01 T00480045  RH  098%=      5-min Rain = 0
KAM3 251030Z 28004KT 05/05 A3022 RMK A01 T00480046  RH  099%=      5-min Rain = 0
KAM3 251031Z 28004KT 05/05 A3022 RMK A01 T00470046  RH  099%=      5-min Rain = 0
KAM3 251032Z 29003KT 05/05 A3022 RMK A01 T00470045  RH  099%=      5-min Rain = 0
KAM3 251033Z 29003KT 05/04 A3022 RMK A01 T00460043  RH  098%=      5-min Rain = 0
KAM3 251034Z 29003KT 05/04 A3022 RMK A01 T00450042  RH  098%=      5-min Rain = 0
KAM3 251035Z 29003KT 04/04 A3022 RMK A01 T00440044  RH  100%=      5-min Rain = 0
KAM3 251036Z 29003KT 04/04 A3022 RMK A01 T00440043  RH  100%=      5-min Rain = 0
KAM3 251037Z 29003KT 04/04 A3022 RMK A01 T00430043  RH  100%=      5-min Rain = 0
KAM3 251038Z 29003KT 04/04 A3022 RMK A01 T00440044  RH  100%=      5-min Rain = 0
KAM3 251039Z 29002KT 04/04 A3022 RMK A01 T00440044  RH  100%=      5-min Rain = 0
KAM3 251040Z 29002KT 05/05 A3022 RMK A01 T00450045  RH  100%=      5-min Rain = 0
KAM3 251041Z 29002KT 05/05 A3022 RMK A01 T00450045  RH  100%=      5-min Rain = 0
KAM3 251042Z 29002KT 05/05 A3022 RMK A01 T00460045  RH  100%=      5-min Rain = 0
KAM3 251043Z 28002KT 05/04 A3022 RMK A01 T00450044  RH  100%=      5-min Rain = 0
KAM3 251044Z 26002KT 04/04 A3022 RMK A01 T00430043  RH  100%=      5-min Rain = 0
KAM3 251045Z 24003KT 04/04 A3022 RMK A01 T00430043  RH  100%=      5-min Rain = 0
KAM3 251046Z 23004KT 04/04 A3022 RMK A01 T00420042  RH  100%=      5-min Rain = 0
KAM3 251047Z 23004KT 04/04 A3022 RMK A01 T00420042  RH  100%=      5-min Rain = 0
KAM3 251048Z 22005KT 04/04 A3022 RMK A01 T00400040  RH  100%=      5-min Rain = 0
KAM3 251049Z 22005KT 04/04 A3022 RMK A01 T00390039  RH  100%=      5-min Rain = 0
KAM3 251050Z 22004KT 04/04 A3022 RMK A01 T00370037  RH  100%=      5-min Rain = 0
KAM3 251051Z 22003KT 04/04 A3022 RMK A01 T00370037  RH  100%=      5-min Rain = 0
KAM3 251052Z 22001KT 04/04 A3023 RMK A01 T00360036  RH  100%=      5-min Rain = 0
KAM3 251053Z 22000KT 04/04 A3023 RMK A01 T00360036  RH  100%=      5-min Rain = 0
KAM3 251054Z 00000KT 04/04 A3023 RMK A01 T00350035  RH  100%=      5-min Rain = 0
KAM3 251055Z 33001KT 04/03 A3023 RMK A01 T00350034  RH  100%=      5-min Rain = 0
KAM3 251056Z 35002KT 04/04 A3023 RMK A01 T00350035  RH  100%=      5-min Rain = 0
KAM3 251057Z 35002KT 04/04 A3023 RMK A01 T00380038  RH  100%=      5-min Rain = 0
KAM3 251058Z 01003KT 04/04 A3023 RMK A01 T00380038  RH  100%=      5-min Rain = 0
KAM3 251059Z 01003KT 04/04 A3023 RMK A01 T00420042  RH  100%=      5-min Rain = 0
KAM3 251100Z 02004KT 04/04 A3023 RMK A01 T00440044  RH  100%=      5-min Rain = 0
KAM3 251101Z 02003KT 05/05 A3023 RMK A01 T00460046  RH  100%=      5-min Rain = 0
KAM3 251102Z 01003KT 05/05 A3023 RMK A01 T00470047  RH  100%=      5-min Rain = 0
KAM3 251103Z 01003KT 05/05 A3023 RMK A01 T00480048  RH  100%=      5-min Rain = 0
KAM3 251104Z 01003KT 05/05 A3023 RMK A01 T00490048  RH  100%=      5-min Rain = 0
KAM3 251105Z 01003KT 05/05 A3023 RMK A01 T00490049  RH  100%=      5-min Rain = 0
KAM3 251106Z 01003KT 05/05 A3023 RMK A01 T00480048  RH  100%=      5-min Rain = 0
KAM3 251107Z 01004KT 05/05 A3023 RMK A01 T00470047  RH  100%=      5-min Rain = 0
KAM3 251108Z 01004KT 05/05 A3023 RMK A01 T00460046  RH  100%=      5-min Rain = 0
KAM3 251109Z 36004KT 05/05 A3023 RMK A01 T00460046  RH  100%=      5-min Rain = 0
KAM3 251110Z 36003KT 05/05 A3023 RMK A01 T00450045  RH  100%=      5-min Rain = 0
KAM3 251111Z 35003KT 05/05 A3023 RMK A01 T00450045  RH  100%=      5-min Rain = 0
KAM3 251112Z 36003KT 05/05 A3023 RMK A01 T00450045  RH  100%=      5-min Rain = 0
KAM3 251113Z 00003KT 05/05 A3024 RMK A01 T00460046  RH  100%=      5-min Rain = 0
KAM3 251114Z 00003KT 05/05 A3024 RMK A01 T00460046  RH  100%=      5-min Rain = 0
KAM3 251115Z 00003KT 05/05 A3024 RMK A01 T00470046  RH  100%=      5-min Rain = 0
KAM3 251116Z 00003KT 05/05 A3024 RMK A01 T00460046  RH  100%=      5-min Rain = 0
KAM3 251117Z 01003KT 05/05 A3024 RMK A01 T00470046  RH  100%=      5-min Rain = 0
KAM3 251118Z 01003KT 05/05 A3024 RMK A01 T00470047  RH  100%=      5-min Rain = 0
KAM3 251119Z 01003KT 05/05 A3024 RMK A01 T00470047  RH  100%=      5-min Rain = 0
KAM3 251120Z 01003KT 05/05 A3024 RMK A01 T00480048  RH  100%=      5-min Rain = 0
KAM3 251121Z 01004KT 05/05 A3024 RMK A01 T00490049  RH  100%=      5-min Rain = 0
KAM3 251122Z 01004KT 05/05 A3024 RMK A01 T00490049  RH  100%=      5-min Rain = 0
KAM3 251123Z 01004KT 05/05 A3024 RMK A01 T00490049  RH  100%=      5-min Rain = 0
KAM3 251124Z 01003KT 05/05 A3024 RMK A01 T00490049  RH  100%=      5-min Rain = 0
KAM3 251125Z 01003KT 05/05 A3024 RMK A01 T00490048  RH  100%=      5-min Rain = 0
KAM3 251126Z 01003KT 05/05 A3024 RMK A01 T00490049  RH  100%=      5-min Rain = 0
KAM3 251127Z 01003KT 05/05 A3024 RMK A01 T00480048  RH  100%=      5-min Rain = 0
KAM3 251128Z 02003KT 05/05 A3024 RMK A01 T00490049  RH  100%=      5-min Rain = 0
KAM3 251129Z 02003KT 05/05 A3024 RMK A01 T00490049  RH  100%=      5-min Rain = 0
KAM3 251130Z 03004KT 05/05 A3024 RMK A01 T00500050  RH  100%=      5-min Rain = 0
KAM3 251131Z 03004KT 05/05 A3024 RMK A01 T00500050  RH  100%=      5-min Rain = 0
KAM3 251132Z 03004KT 05/05 A3024 RMK A01 T00500050  RH  100%=      5-min Rain = 0
KAM3 251133Z 03004KT 05/05 A3024 RMK A01 T00490049  RH  100%=      5-min Rain = 0
KAM3 251134Z 03004KT 05/05 A3024 RMK A01 T00490049  RH  100%=      5-min Rain = 0
KAM3 251135Z 03004KT 05/05 A3024 RMK A01 T00490049  RH  100%=      5-min Rain = 0
KAM3 251136Z 03004KT 05/05 A3024 RMK A01 T00490049  RH  100%=      5-min Rain = 0
KAM3 251137Z 03005KT 05/05 A3024 RMK A01 T00490049  RH  100%=      5-min Rain = 0
KAM3 251138Z 03005KT 05/05 A3024 RMK A01 T00490049  RH  100%=      5-min Rain = 0
KAM3 251139Z 03005KT 05/05 A3024 RMK A01 T00490049  RH  100%=      5-min Rain = 0
KAM3 251140Z 03005KT 05/05 A3024 RMK A01 T00480048  RH  100%=      5-min Rain = 0
KAM3 251141Z 03005KT 05/05 A3024 RMK A01 T00480048  RH  100%=      5-min Rain = 0
KAM3 251142Z 03005KT 05/05 A3024 RMK A01 T00470047  RH  100%=      5-min Rain = 0
KAM3 251143Z 03005KT 05/05 A3025 RMK A01 T00470047  RH  100%=      5-min Rain = 0
KAM3 251144Z 03005KT 05/05 A3025 RMK A01 T00460046  RH  100%=      5-min Rain = 0
KAM3 251145Z 03005KT 05/05 A3025 RMK A01 T00470046  RH  100%=      5-min Rain = 0
KAM3 251146Z 03004KT 05/05 A3025 RMK A01 T00460046  RH  100%=      5-min Rain = 0
KAM3 251147Z 03004KT 05/05 A3025 RMK A01 T00470046  RH  100%=      5-min Rain = 0
KAM3 251148Z 03005KT 05/05 A3025 RMK A01 T00480047  RH  100%=      5-min Rain = 0
KAM3 251149Z 03005KT 05/05 A3025 RMK A01 T00480048  RH  100%=      5-min Rain = 0
KAM3 251150Z 03005KT 05/05 A3025 RMK A01 T00470047  RH  100%=      5-min Rain = 0
KAM3 251151Z 03005KT 05/05 A3025 RMK A01 T00470047  RH  100%=      5-min Rain = 0
KAM3 251152Z 03005KT 05/05 A3025 RMK A01 T00470047  RH  100%=      5-min Rain = 0
KAM3 251153Z 03005KT 05/05 A3025 RMK A01 T00450045  RH  100%=      5-min Rain = 0
KAM3 251154Z 03004KT 05/04 A3025 RMK A01 T00450044  RH  100%=      5-min Rain = 0
KAM3 251155Z 03003KT 04/04 A3025 RMK A01 T00440044  RH  100%=      5-min Rain = 0
KAM3 251156Z 03003KT 04/04 A3025 RMK A01 T00440044  RH  100%=      5-min Rain = 0
KAM3 251157Z 03003KT 04/04 A3025 RMK A01 T00440044  RH  100%=      5-min Rain = 0
KAM3 251158Z 03003KT 04/04 A3025 RMK A01 T00440043  RH  100%=      5-min Rain = 0
KAM3 251159Z 03003KT 04/04 A3025 RMK A01 T00440044  RH  100%=      5-min Rain = 0
KAM3 251200Z 03002KT 04/04 A3025 RMK A01 T00440043  RH  100%=      5-min Rain = 0
KAM3 251201Z 03002KT 04/04 A3025 RMK A01 T00430043  RH  100%=      5-min Rain = 0
KAM3 251202Z 03001KT 04/04 A3025 RMK A01 T00430043  RH  100%=      5-min Rain = 0
KAM3 251203Z 03001KT 04/04 A3025 RMK A01 T00430043  RH  100%=      5-min Rain = 0
KAM3 251204Z 03001KT 04/04 A3025 RMK A01 T00420042  RH  100%=      5-min Rain = 0
KAM3 251205Z 03002KT 04/04 A3026 RMK A01 T00420042  RH  100%=      5-min Rain = 0
KAM3 251206Z 03003KT 04/04 A3026 RMK A01 T00410041  RH  100%=      5-min Rain = 0
KAM3 251207Z 02003KT 04/04 A3026 RMK A01 T00400040  RH  100%=      5-min Rain = 0
KAM3 251208Z 03003KT 04/04 A3026 RMK A01 T00400039  RH  100%=      5-min Rain = 0
KAM3 251209Z 03003KT 04/04 A3026 RMK A01 T00390039  RH  100%=      5-min Rain = 0
KAM3 251210Z 03003KT 04/04 A3026 RMK A01 T00400040  RH  100%=      5-min Rain = 0
KAM3 251211Z 03003KT 04/04 A3026 RMK A01 T00410041  RH  100%=      5-min Rain = 0
KAM3 251212Z 03003KT 04/04 A3026 RMK A01 T00420042  RH  100%=      5-min Rain = 0
KAM3 251213Z 03002KT 04/04 A3026 RMK A01 T00420042  RH  100%=      5-min Rain = 0
KAM3 251214Z 03002KT 04/04 A3026 RMK A01 T00420042  RH  100%=      5-min Rain = 0
KAM3 251215Z 03002KT 04/04 A3026 RMK A01 T00420042  RH  100%=      5-min Rain = 0
KAM3 251216Z 03002KT 04/04 A3026 RMK A01 T00420042  RH  100%=      5-min Rain = 0
KAM3 251217Z 03002KT 04/04 A3026 RMK A01 T00420042  RH  100%=      5-min Rain = 0
KAM3 251218Z 03002KT 04/04 A3026 RMK A01 T00430042  RH  100%=      5-min Rain = 0
KAM3 251219Z 03002KT 04/04 A3026 RMK A01 T00430043  RH  100%=      5-min Rain = 0
KAM3 251220Z 03002KT 04/04 A3026 RMK A01 T00420042  RH  100%=      5-min Rain = 0
KAM3 251221Z 03002KT 04/04 A3026 RMK A01 T00420042  RH  100%=      5-min Rain = 0
KAM3 251222Z 03002KT 04/04 A3026 RMK A01 T00410041  RH  100%=      5-min Rain = 0
KAM3 251223Z 03001KT 04/04 A3026 RMK A01 T00400040  RH  100%=      5-min Rain = 0
KAM3 251224Z 03001KT 04/04 A3026 RMK A01 T00400040  RH  100%=      5-min Rain = 0
KAM3 251225Z 03001KT 04/04 A3027 RMK A01 T00400040  RH  100%=      5-min Rain = 0
KAM3 251226Z 03001KT 04/04 A3027 RMK A01 T00380038  RH  100%=      5-min Rain = 0
KAM3 251227Z 03001KT 04/04 A3027 RMK A01 T00380038  RH  100%=      5-min Rain = 0
KAM3 251228Z 03001KT 04/04 A3027 RMK A01 T00380038  RH  100%=      5-min Rain = 0
KAM3 251229Z 03001KT 04/04 A3027 RMK A01 T00390039  RH  100%=      5-min Rain = 0
KAM3 251230Z 03000KT 04/04 A3027 RMK A01 T00400040  RH  100%=      5-min Rain = 0
KAM3 251231Z 04000KT 04/04 A3027 RMK A01 T00400040  RH  100%=      5-min Rain = 0
KAM3 251232Z 04000KT 04/04 A3027 RMK A01 T00410041  RH  100%=      5-min Rain = 0
KAM3 251233Z 00000KT 04/04 A3027 RMK A01 T00400040  RH  100%=      5-min Rain = 0
KAM3 251234Z 00000KT 04/04 A3027 RMK A01 T00400040  RH  100%=      5-min Rain = 0
KAM3 251235Z 00000KT 04/04 A3027 RMK A01 T00400040  RH  100%=      5-min Rain = 0
KAM3 251236Z 00000KT 04/04 A3027 RMK A01 T00410041  RH  100%=      5-min Rain = 0
KAM3 251237Z 00000KT 04/04 A3027 RMK A01 T00410041  RH  100%=      5-min Rain = 0
KAM3 251238Z 00000KT 04/04 A3027 RMK A01 T00400040  RH  100%=      5-min Rain = 0
KAM3 251239Z 00000KT 04/04 A3027 RMK A01 T00400040  RH  100%=      5-min Rain = 0
KAM3 251240Z 00000KT 04/04 A3027 RMK A01 T00400040  RH  100%=      5-min Rain = 0
KAM3 251241Z 04000KT 04/04 A3027 RMK A01 T00400040  RH  100%=      5-min Rain = 0
KAM3 251242Z 04001KT 04/04 A3027 RMK A01 T00400040  RH  100%=      5-min Rain = 0
KAM3 251243Z 04000KT 04/04 A3027 RMK A01 T00400040  RH  100%=      5-min Rain = 0
KAM3 251244Z 04000KT 04/04 A3027 RMK A01 T00400040  RH  100%=      5-min Rain = 0
KAM3 251245Z 04000KT 04/04 A3028 RMK A01 T00390039  RH  100%=      5-min Rain = 0
KAM3 251246Z 04000KT 04/04 A3028 RMK A01 T00390038  RH  100%=      5-min Rain = 0
KAM3 251247Z 04001KT 04/04 A3028 RMK A01 T00380038  RH  100%=      5-min Rain = 0
KAM3 251248Z 05001KT 04/04 A3028 RMK A01 T00390038  RH  100%=      5-min Rain = 0
KAM3 251249Z 06002KT 04/04 A3028 RMK A01 T00380038  RH  100%=      5-min Rain = 0
KAM3 251250Z 07002KT 04/04 A3028 RMK A01 T00380037  RH  100%=      5-min Rain = 0
KAM3 251251Z 06002KT 04/04 A3028 RMK A01 T00370037  RH  100%=      5-min Rain = 0
KAM3 251252Z 05001KT 04/04 A3028 RMK A01 T00370037  RH  100%=      5-min Rain = 0
KAM3 251253Z 05002KT 04/04 A3028 RMK A01 T00360036  RH  100%=      5-min Rain = 0
KAM3 251254Z 05001KT 04/04 A3028 RMK A01 T00360036  RH  100%=      5-min Rain = 0
KAM3 251255Z 04002KT 04/04 A3028 RMK A01 T00370037  RH  100%=      5-min Rain = 0
KAM3 251256Z 03002KT 04/04 A3028 RMK A01 T00370037  RH  100%=      5-min Rain = 0
KAM3 251257Z 03003KT 04/04 A3028 RMK A01 T00380038  RH  100%=      5-min Rain = 0
KAM3 251258Z 03002KT 04/04 A3028 RMK A01 T00410041  RH  100%=      5-min Rain = 0
KAM3 251259Z 03002KT 04/04 A3028 RMK A01 T00430042  RH  100%=      5-min Rain = 0
KAM3 251300Z 03002KT 04/04 A3028 RMK A01 T00430043  RH  100%=      5-min Rain = 0
KAM3 251301Z 04002KT 04/04 A3028 RMK A01 T00440043  RH  100%=      5-min Rain = 0
KAM3 251302Z 03001KT 04/04 A3028 RMK A01 T00440044  RH  100%=      5-min Rain = 0
KAM3 251303Z 03001KT 04/04 A3028 RMK A01 T00440044  RH  100%=      5-min Rain = 0
KAM3 251304Z 03001KT 04/04 A3028 RMK A01 T00430043  RH  100%=      5-min Rain = 0
KAM3 251305Z 03001KT 04/04 A3028 RMK A01 T00430043  RH  100%=      5-min Rain = 0
KAM3 251306Z 03001KT 04/04 A3028 RMK A01 T00420041  RH  100%=      5-min Rain = 0
KAM3 251307Z 03001KT 04/04 A3029 RMK A01 T00400040  RH  100%=      5-min Rain = 0
KAM3 251308Z 03001KT 04/04 A3029 RMK A01 T00390039  RH  100%=      5-min Rain = 0
KAM3 251309Z 03001KT 04/04 A3029 RMK A01 T00380038  RH  100%=      5-min Rain = 0
KAM3 251310Z 03001KT 04/04 A3029 RMK A01 T00380038  RH  100%=      5-min Rain = 0
KAM3 251311Z 03000KT 04/04 A3029 RMK A01 T00370037  RH  100%=      5-min Rain = 0
KAM3 251312Z 00000KT 04/04 A3029 RMK A01 T00370037  RH  100%=      5-min Rain = 0
KAM3 251313Z 00000KT 04/04 A3029 RMK A01 T00360036  RH  100%=      5-min Rain = 0
KAM3 251314Z 03000KT 04/04 A3029 RMK A01 T00360036  RH  100%=      5-min Rain = 0
KAM3 251315Z 01001KT 04/04 A3029 RMK A01 T00370037  RH  100%=      5-min Rain = 0
KAM3 251316Z 00001KT 04/04 A3029 RMK A01 T00370037  RH  100%=      5-min Rain = 0
KAM3 251317Z 00001KT 04/04 A3029 RMK A01 T00380038  RH  100%=      5-min Rain = 0
KAM3 251318Z 00001KT 04/04 A3029 RMK A01 T00380038  RH  100%=      5-min Rain = 0
KAM3 251319Z 36001KT 04/04 A3029 RMK A01 T00380038  RH  100%=      5-min Rain = 0
KAM3 251320Z 00001KT 04/04 A3029 RMK A01 T00390039  RH  100%=      5-min Rain = 0
KAM3 251321Z 35001KT 04/04 A3029 RMK A01 T00400040  RH  100%=      5-min Rain = 0
KAM3 251322Z 35000KT 04/04 A3029 RMK A01 T00410041  RH  100%=      5-min Rain = 0
KAM3 251323Z 35000KT 04/04 A3029 RMK A01 T00420042  RH  100%=      5-min Rain = 0
KAM3 251324Z 35000KT 04/04 A3029 RMK A01 T00420042  RH  100%=      5-min Rain = 0
KAM3 251325Z 00000KT 04/04 A3029 RMK A01 T00420042  RH  100%=      5-min Rain = 0
KAM3 251326Z 35001KT 04/04 A3029 RMK A01 T00430043  RH  100%=      5-min Rain = 0
KAM3 251327Z 35000KT 04/04 A3029 RMK A01 T00440043  RH  100%=      5-min Rain = 0
KAM3 251328Z 35000KT 04/04 A3029 RMK A01 T00440044  RH  100%=      5-min Rain = 0
KAM3 251329Z 35000KT 05/05 A3029 RMK A01 T00450045  RH  100%=      5-min Rain = 0
KAM3 251330Z 36001KT 05/05 A3029 RMK A01 T00460046  RH  100%=      5-min Rain = 0
KAM3 251331Z 35001KT 05/05 A3029 RMK A01 T00460046  RH  100%=      5-min Rain = 0
KAM3 251332Z 35001KT 05/05 A3029 RMK A01 T00470047  RH  100%=      5-min Rain = 0
KAM3 251333Z 34001KT 05/05 A303 RMK A01 T00470047  RH  100%=      5-min Rain = 0
KAM3 251334Z 35001KT 05/05 A303 RMK A01 T00480048  RH  100%=      5-min Rain = 0
KAM3 251335Z 35002KT 05/05 A303 RMK A01 T00490049  RH  100%=      5-min Rain = 0
KAM3 251336Z 34002KT 05/05 A303 RMK A01 T00490049  RH  100%=      5-min Rain = 0
KAM3 251337Z 34002KT 05/05 A303 RMK A01 T00500050  RH  100%=      5-min Rain = 0
KAM3 251338Z 34002KT 05/05 A303 RMK A01 T00510051  RH  100%=      5-min Rain = 0
KAM3 251339Z 34002KT 05/05 A303 RMK A01 T00510051  RH  100%=      5-min Rain = 0
KAM3 251340Z 34002KT 05/05 A303 RMK A01 T00510051  RH  100%=      5-min Rain = 0
KAM3 251341Z 34002KT 05/05 A303 RMK A01 T00520052  RH  100%=      5-min Rain = 0
KAM3 251342Z 34002KT 05/05 A303 RMK A01 T00520052  RH  100%=      5-min Rain = 0
KAM3 251343Z 33002KT 05/05 A303 RMK A01 T00520052  RH  100%=      5-min Rain = 0
KAM3 251344Z 35002KT 05/05 A303 RMK A01 T00520052  RH  100%=      5-min Rain = 0
KAM3 251345Z 35002KT 05/05 A303 RMK A01 T00520052  RH  100%=      5-min Rain = 0
KAM3 251346Z 35001KT 05/05 A303 RMK A01 T00520052  RH  100%=      5-min Rain = 0
KAM3 251347Z 35002KT 05/05 A303 RMK A01 T00520052  RH  100%=      5-min Rain = 0
KAM3 251348Z 33001KT 05/05 A303 RMK A01 T00520052  RH  100%=      5-min Rain = 0
KAM3 251349Z 34002KT 05/05 A303 RMK A01 T00520052  RH  100%=      5-min Rain = 0
KAM3 251350Z 34002KT 05/05 A303 RMK A01 T00530053  RH  100%=      5-min Rain = 0
KAM3 251351Z 35001KT 05/05 A303 RMK A01 T00530053  RH  100%=      5-min Rain = 0
KAM3 251352Z 36002KT 05/05 A303 RMK A01 T00540053  RH  100%=      5-min Rain = 0
KAM3 251353Z 00001KT 06/05 A303 RMK A01 T00550054  RH  100%=      5-min Rain = 0
KAM3 251354Z 00002KT 06/06 A303 RMK A01 T00550055  RH  100%=      5-min Rain = 0
KAM3 251355Z 36002KT 06/06 A303 RMK A01 T00550055  RH  100%=      5-min Rain = 0
KAM3 251356Z 36001KT 06/06 A303 RMK A01 T00560056  RH  100%=      5-min Rain = 0
KAM3 251357Z 36001KT 06/06 A303 RMK A01 T00570057  RH  100%=      5-min Rain = 0
KAM3 251358Z 36002KT 06/06 A303 RMK A01 T00570057  RH  100%=      5-min Rain = 0
KAM3 251359Z 03002KT 06/06 A3031 RMK A01 T00570057  RH  100%=      5-min Rain = 0
KAM3 251400Z 01002KT 06/06 A3031 RMK A01 T00580058  RH  100%=      5-min Rain = 0
KAM3 251401Z 02002KT 06/06 A3031 RMK A01 T00580058  RH  100%=      5-min Rain = 0
KAM3 251402Z 05001KT 06/06 A3031 RMK A01 T00580058  RH  100%=      5-min Rain = 0
KAM3 251403Z 06000KT 06/06 A3031 RMK A01 T00580058  RH  100%=      5-min Rain = 0
KAM3 251404Z 06000KT 06/06 A3031 RMK A01 T00590059  RH  100%=      5-min Rain = 0
KAM3 251405Z 08001KT 06/06 A3031 RMK A01 T00600060  RH  100%=      5-min Rain = 0
KAM3 251406Z 06002KT 06/06 A3031 RMK A01 T00620062  RH  100%=      5-min Rain = 0
KAM3 251407Z 04002KT 06/06 A3031 RMK A01 T00630063  RH  100%=      5-min Rain = 0
KAM3 251408Z 01002KT 06/06 A3031 RMK A01 T00640064  RH  100%=      5-min Rain = 0
KAM3 251409Z 01003KT 06/06 A3031 RMK A01 T00640064  RH  100%=      5-min Rain = 0
KAM3 251410Z 02003KT 06/06 A3031 RMK A01 T00640064  RH  100%=      5-min Rain = 0
KAM3 251411Z 03002KT 06/06 A3031 RMK A01 T00630063  RH  100%=      5-min Rain = 0
KAM3 251412Z 04002KT 06/06 A3031 RMK A01 T00640064  RH  100%=      5-min Rain = 0
KAM3 251413Z 03003KT 06/06 A3031 RMK A01 T00640064  RH  100%=      5-min Rain = 0
KAM3 251414Z 03003KT 07/07 A3031 RMK A01 T00650065  RH  100%=      5-min Rain = 0
KAM3 251415Z 03004KT 07/07 A3031 RMK A01 T00650065  RH  100%=      5-min Rain = 0
KAM3 251416Z 05003KT 06/06 A3031 RMK A01 T00640064  RH  100%=      5-min Rain = 0
KAM3 251417Z 06003KT 06/06 A3031 RMK A01 T00630063  RH  100%=      5-min Rain = 0
KAM3 251418Z 04002KT 06/06 A3032 RMK A01 T00630063  RH  100%=      5-min Rain = 0
KAM3 251419Z 03003KT 06/06 A3032 RMK A01 T00640064  RH  100%=      5-min Rain = 0
KAM3 251420Z 01004KT 07/07 A3032 RMK A01 T00650065  RH  100%=      5-min Rain = 0
KAM3 251421Z 01004KT 07/07 A3032 RMK A01 T00650065  RH  100%=      5-min Rain = 0
KAM3 251422Z 36004KT 07/07 A3032 RMK A01 T00650065  RH  100%=      5-min Rain = 0
KAM3 251423Z 02004KT 07/07 A3032 RMK A01 T00650065  RH  100%=      5-min Rain = 0
KAM3 251424Z 03003KT 07/07 A3032 RMK A01 T00660066  RH  100%=      5-min Rain = 0
KAM3 251425Z 05004KT 07/07 A3032 RMK A01 T00670067  RH  100%=      5-min Rain = 0
KAM3 251426Z 05005KT 07/07 A3032 RMK A01 T00670067  RH  100%=      5-min Rain = 0
KAM3 251427Z 06006KT 07/07 A3032 RMK A01 T00670067  RH  100%=      5-min Rain = 0
KAM3 251428Z 04003KT 07/07 A3032 RMK A01 T00660066  RH  100%=      5-min Rain = 0
KAM3 251429Z 04004KT 07/07 A3032 RMK A01 T00650065  RH  100%=      5-min Rain = 0
KAM3 251430Z 06005KT 07/07 A3032 RMK A01 T00660066  RH  100%=      5-min Rain = 0
KAM3 251431Z 05005KT 07/07 A3032 RMK A01 T00660066  RH  100%=      5-min Rain = 0
KAM3 251432Z 05006KT 07/07 A3032 RMK A01 T00670067  RH  100%=      5-min Rain = 0
KAM3 251433Z 06005KT 07/07 A3032 RMK A01 T00670067  RH  100%=      5-min Rain = 0
KAM3 251434Z 07005KT 07/07 A3032 RMK A01 T00660066  RH  100%=      5-min Rain = 0
KAM3 251435Z 06004KT 07/07 A3032 RMK A01 T00660066  RH  100%=      5-min Rain = 0
KAM3 251436Z 06004KT 07/07 A3032 RMK A01 T00660066  RH  100%=      5-min Rain = 0
KAM3 251437Z 05006KT 07/07 A3032 RMK A01 T00660066  RH  100%=      5-min Rain = 0
KAM3 251438Z 05005KT 07/07 A3032 RMK A01 T00670067  RH  100%=      5-min Rain = 0
KAM3 251439Z 05005KT 07/07 A3032 RMK A01 T00670067  RH  100%=      5-min Rain = 0
KAM3 251440Z 05006KT 07/07 A3032 RMK A01 T00670067  RH  100%=      5-min Rain = 0
KAM3 251441Z 05006KT 07/07 A3032 RMK A01 T00670067  RH  100%=      5-min Rain = 0
KAM3 251442Z 05005KT 07/07 A3032 RMK A01 T00670067  RH  100%=      5-min Rain = 0
KAM3 251443Z 06004KT 07/07 A3032 RMK A01 T00670067  RH  100%=      5-min Rain = 0
KAM3 251444Z 05003KT 07/07 A3032 RMK A01 T00680068  RH  100%=      5-min Rain = 0
KAM3 251445Z 06003KT 07/07 A3032 RMK A01 T00690069  RH  100%=      5-min Rain = 0
KAM3 251446Z 07005KT 07/07 A3032 RMK A01 T00700070  RH  100%=      5-min Rain = 0
KAM3 251447Z 05005KT 07/07 A3032 RMK A01 T00710071  RH  100%=      5-min Rain = 0
KAM3 251448Z 04006KT 07/07 A3032 RMK A01 T00710071  RH  100%=      5-min Rain = 0
KAM3 251449Z 04005KT 07/07 A3033 RMK A01 T00710071  RH  100%=      5-min Rain = 0
KAM3 251450Z 05005KT 07/07 A3033 RMK A01 T00700070  RH  100%=      5-min Rain = 0
KAM3 251451Z 05006KT 07/07 A3033 RMK A01 T00690069  RH  100%=      5-min Rain = 0
KAM3 251452Z 03005KT 07/07 A3033 RMK A01 T00690069  RH  100%=      5-min Rain = 0
KAM3 251453Z 03006KT 07/07 A3033 RMK A01 T00680068  RH  100%=      5-min Rain = 0
KAM3 251454Z 03006KT 07/07 A3033 RMK A01 T00680068  RH  100%=      5-min Rain = 0
KAM3 251455Z 03005KT 07/07 A3033 RMK A01 T00680068  RH  100%=      5-min Rain = 0
KAM3 251456Z 04006KT 07/07 A3033 RMK A01 T00680068  RH  100%=      5-min Rain = 0
KAM3 251457Z 05007KT 07/07 A3033 RMK A01 T00700070  RH  100%=      5-min Rain = 0
KAM3 251458Z 05006KT 07/07 A3033 RMK A01 T00690069  RH  100%=      5-min Rain = 0
KAM3 251459Z 07006KT 07/07 A3033 RMK A01 T00690069  RH  100%=      5-min Rain = 0
KAM3 251500Z 06005KT 07/07 A3033 RMK A01 T00690069  RH  100%=      5-min Rain = 0
KAM3 251501Z 07005KT 07/07 A3033 RMK A01 T00700070  RH  100%=      5-min Rain = 0
KAM3 251502Z 05005KT 07/07 A3033 RMK A01 T00710071  RH  100%=      5-min Rain = 0
KAM3 251503Z 06007KT 07/07 A3033 RMK A01 T00710071  RH  100%=      5-min Rain = 0
KAM3 251504Z 07007KT 07/07 A3033 RMK A01 T00710070  RH  099%=      5-min Rain = 0
KAM3 251505Z 06006KT 07/07 A3033 RMK A01 T00700068  RH  099%=      5-min Rain = 0
KAM3 251506Z 06006KT 07/07 A3033 RMK A01 T00690069  RH  100%=      5-min Rain = 0
KAM3 251507Z 05006KT 07/07 A3033 RMK A01 T00690069  RH  100%=      5-min Rain = 0
KAM3 251508Z 07005KT 07/07 A3033 RMK A01 T00700070  RH  100%=      5-min Rain = 0
KAM3 251509Z 07006KT 07/07 A3033 RMK A01 T00710071  RH  100%=      5-min Rain = 0
KAM3 251510Z 05008KT 07/07 A3033 RMK A01 T00720071  RH  100%=      5-min Rain = 0
KAM3 251511Z 04007KT 07/07 A3033 RMK A01 T00710069  RH  098%=      5-min Rain = 0
KAM3 251512Z 05007KT 07/07 A3033 RMK A01 T00710069  RH  099%=      5-min Rain = 0
KAM3 251513Z 05006KT 07/07 A3033 RMK A01 T00710071  RH  100%=      5-min Rain = 0
KAM3 251514Z 05005KT 07/07 A3033 RMK A01 T00720072  RH  100%=      5-min Rain = 0
KAM3 251515Z 08006KT 07/07 A3033 RMK A01 T00720070  RH  099%=      5-min Rain = 0
KAM3 251516Z 07008KT 07/07 A3033 RMK A01 T00720070  RH  099%=      5-min Rain = 0
KAM3 251517Z 07006KT 07/07 A3033 RMK A01 T00720071  RH  099%=      5-min Rain = 0
KAM3 251518Z 07007KT 07/07 A3033 RMK A01 T00730071  RH  099%=      5-min Rain = 0
KAM3 251519Z 06007KT 07/07 A3033 RMK A01 T00740072  RH  099%=      5-min Rain = 0
KAM3 251520Z 06008KT 07/07 A3033 RMK A01 T00740069  RH  097%=      5-min Rain = 0
KAM3 251521Z 08007KT 07/07 A3033 RMK A01 T00740069  RH  097%=      5-min Rain = 0
KAM3 251522Z 08005KT 07/07 A3033 RMK A01 T00730070  RH  098%=      5-min Rain = 0
KAM3 251523Z 08006KT 07/07 A3033 RMK A01 T00730072  RH  099%=      5-min Rain = 0
KAM3 251524Z 08005KT 07/07 A3033 RMK A01 T00740072  RH  099%=      5-min Rain = 0
KAM3 251525Z 08006KT 08/07 A3034 RMK A01 T00750071  RH  097%=      5-min Rain = 0
KAM3 251526Z 06005KT 08/07 A3034 RMK A01 T00760071  RH  097%=      5-min Rain = 0
KAM3 251527Z 06005KT 08/07 A3034 RMK A01 T00770068  RH  094%=      5-min Rain = 0
KAM3 251528Z 05007KT 08/07 A3034 RMK A01 T00750066  RH  094%=      5-min Rain = 0
KAM3 251529Z 05007KT 07/07 A3034 RMK A01 T00740066  RH  095%=      5-min Rain = 0
KAM3 251530Z 07006KT 07/07 A3034 RMK A01 T00730066  RH  095%=      5-min Rain = 0
KAM3 251531Z 07006KT 07/07 A3034 RMK A01 T00730069  RH  097%=      5-min Rain = 0
KAM3 251532Z 06005KT 07/07 A3034 RMK A01 T00740067  RH  096%=      5-min Rain = 0
KAM3 251533Z 06007KT 07/07 A3034 RMK A01 T00730069  RH  097%=      5-min Rain = 0
KAM3 251534Z 07006KT 07/07 A3034 RMK A01 T00730067  RH  096%=      5-min Rain = 0
KAM3 251535Z 05006KT 07/07 A3034 RMK A01 T00730068  RH  097%=      5-min Rain = 0
KAM3 251536Z 08006KT 07/07 A3034 RMK A01 T00730070  RH  098%=      5-min Rain = 0
KAM3 251537Z 09006KT 08/07 A3034 RMK A01 T00750072  RH  098%=      5-min Rain = 0
KAM3 251538Z 09006KT 08/07 A3034 RMK A01 T00760070  RH  096%=      5-min Rain = 0
KAM3 251539Z 08007KT 08/07 A3034 RMK A01 T00770069  RH  095%=      5-min Rain = 0
KAM3 251540Z 07006KT 08/07 A3034 RMK A01 T00770069  RH  095%=      5-min Rain = 0
KAM3 251541Z 09007KT 08/07 A3034 RMK A01 T00770067  RH  094%=      5-min Rain = 0
KAM3 251542Z 08008KT 08/07 A3034 RMK A01 T00770068  RH  094%=      5-min Rain = 0
KAM3 251543Z 08006KT 08/07 A3034 RMK A01 T00750066  RH  094%=      5-min Rain = 0
KAM3 251544Z 07007KT 08/07 A3034 RMK A01 T00750068  RH  095%=      5-min Rain = 0
KAM3 251545Z 07006KT 08/07 A3034 RMK A01 T00750068  RH  095%=      5-min Rain = 0
KAM3 251546Z 09006KT 08/07 A3034 RMK A01 T00750068  RH  096%=      5-min Rain = 0
KAM3 251547Z 10006KT 08/07 A3034 RMK A01 T00750067  RH  094%=      5-min Rain = 0
KAM3 251548Z 09005KT 08/07 A3034 RMK A01 T00750069  RH  096%=      5-min Rain = 0
KAM3 251549Z 10007KT 08/07 A3034 RMK A01 T00760071  RH  096%=      5-min Rain = 0
KAM3 251550Z 09005KT 08/07 A3034 RMK A01 T00770067  RH  093%=      5-min Rain = 0
KAM3 251551Z 09006KT 08/07 A3034 RMK A01 T00750067  RH  095%=      5-min Rain = 0
KAM3 251552Z 09006KT 08/07 A3034 RMK A01 T00750070  RH  096%=      5-min Rain = 0
KAM3 251553Z 09006KT 08/07 A3034 RMK A01 T00760068  RH  095%=      5-min Rain = 0
KAM3 251554Z 08007KT 08/07 A3034 RMK A01 T00770069  RH  095%=      5-min Rain = 0
KAM3 251555Z 08007KT 08/07 A3034 RMK A01 T00770067  RH  093%=      5-min Rain = 0
KAM3 251556Z 08007KT 08/07 A3034 RMK A01 T00760067  RH  094%=      5-min Rain = 0
KAM3 251557Z 09006KT 08/07 A3034 RMK A01 T00760069  RH  095%=      5-min Rain = 0
KAM3 251558Z 09005KT 08/07 A3034 RMK A01 T00760067  RH  094%=      5-min Rain = 0
KAM3 251559Z 10005KT 08/07 A3034 RMK A01 T00770068  RH  094%=      5-min Rain = 0
KAM3 251600Z 10005KT 08/07 A3034 RMK A01 T00770069  RH  095%=      5-min Rain = 0
KAM3 251601Z 09006KT 08/07 A3034 RMK A01 T00790070  RH  094%=      5-min Rain = 0
KAM3 251602Z 09006KT 08/07 A3034 RMK A01 T00800068  RH  092%=      5-min Rain = 0
KAM3 251603Z 10004KT 08/07 A3034 RMK A01 T00790067  RH  092%=      5-min Rain = 0
KAM3 251604Z 08005KT 08/07 A3034 RMK A01 T00790068  RH  093%=      5-min Rain = 0
KAM3 251605Z 09005KT 08/07 A3034 RMK A01 T00780068  RH  093%=      5-min Rain = 0
KAM3 251606Z 10006KT 08/07 A3034 RMK A01 T00780068  RH  093%=      5-min Rain = 0
KAM3 251607Z 11004KT 08/07 A3034 RMK A01 T00790068  RH  093%=      5-min Rain = 0
KAM3 251608Z 10005KT 08/07 A3034 RMK A01 T00780067  RH  092%=      5-min Rain = 0
KAM3 251609Z 09005KT 08/07 A3034 RMK A01 T00780071  RH  095%=      5-min Rain = 0
KAM3 251610Z 09005KT 08/07 A3034 RMK A01 T00800069  RH  093%=      5-min Rain = 0
KAM3 251611Z 10006KT 08/07 A3035 RMK A01 T00810067  RH  091%=      5-min Rain = 0
KAM3 251612Z 09006KT 08/07 A3035 RMK A01 T00800067  RH  092%=      5-min Rain = 0
KAM3 251613Z 09006KT 08/07 A3035 RMK A01 T00800067  RH  092%=      5-min Rain = 0
KAM3 251614Z 09007KT 08/07 A3035 RMK A01 T00800067  RH  092%=      5-min Rain = 0
KAM3 251615Z 09005KT 08/07 A3035 RMK A01 T00800067  RH  092%=      5-min Rain = 0
KAM3 251616Z 09005KT 08/07 A3035 RMK A01 T00780067  RH  093%=      5-min Rain = 0
KAM3 251617Z 08005KT 08/07 A3035 RMK A01 T00780069  RH  094%=      5-min Rain = 0
KAM3 251618Z 08005KT 08/07 A3035 RMK A01 T00780069  RH  094%=      5-min Rain = 0
KAM3 251619Z 08003KT 08/07 A3035 RMK A01 T00780068  RH  094%=      5-min Rain = 0
KAM3 251620Z 10003KT 08/07 A3035 RMK A01 T00780069  RH  094%=      5-min Rain = 0
KAM3 251621Z 09005KT 08/07 A3035 RMK A01 T00780070  RH  095%=      5-min Rain = 0
KAM3 251622Z 10006KT 08/07 A3035 RMK A01 T00790068  RH  093%=      5-min Rain = 0
KAM3 251623Z 10005KT 08/07 A3035 RMK A01 T00790068  RH  093%=      5-min Rain = 0
KAM3 251624Z 11004KT 08/07 A3035 RMK A01 T00800068  RH  092%=      5-min Rain = 0
KAM3 251625Z 10004KT 08/07 A3035 RMK A01 T00800068  RH  092%=      5-min Rain = 0
KAM3 251626Z 08004KT 08/07 A3035 RMK A01 T00800070  RH  093%=      5-min Rain = 0
KAM3 251627Z 06002KT 08/07 A3035 RMK A01 T00800068  RH  092%=      5-min Rain = 0
KAM3 251628Z 04003KT 08/07 A3035 RMK A01 T00810072  RH  094%=      5-min Rain = 0
KAM3 251629Z 02004KT 08/07 A3035 RMK A01 T00830070  RH  091%=      5-min Rain = 0
KAM3 251630Z 06004KT 08/07 A3035 RMK A01 T00830068  RH  090%=      5-min Rain = 0
KAM3 251631Z 06005KT 08/07 A3035 RMK A01 T00840069  RH  090%=      5-min Rain = 0
KAM3 251632Z 07006KT 08/07 A3035 RMK A01 T00840069  RH  090%=      5-min Rain = 0
KAM3 251633Z 09005KT 09/07 A3035 RMK A01 T00860068  RH  089%=      5-min Rain = 0
KAM3 251634Z 09004KT 09/07 A3035 RMK A01 T00850066  RH  088%=      5-min Rain = 0
KAM3 251635Z 09003KT 08/07 A3035 RMK A01 T00840069  RH  090%=      5-min Rain = 0
KAM3 251636Z 06006KT 09/07 A3035 RMK A01 T00850070  RH  091%=      5-min Rain = 0
KAM3 251637Z 07007KT 09/07 A3035 RMK A01 T00870069  RH  088%=      5-min Rain = 0
KAM3 251638Z 08004KT 09/07 A3035 RMK A01 T00860068  RH  088%=      5-min Rain = 0
KAM3 251639Z 08004KT 09/07 A3035 RMK A01 T00850068  RH  089%=      5-min Rain = 0
KAM3 251640Z 08002KT 09/07 A3035 RMK A01 T00850067  RH  089%=      5-min Rain = 0
KAM3 251641Z 08005KT 09/07 A3035 RMK A01 T00860070  RH  090%=      5-min Rain = 0
KAM3 251642Z 12004KT 09/07 A3035 RMK A01 T00880070  RH  088%=      5-min Rain = 0
KAM3 251643Z 14002KT 09/07 A3035 RMK A01 T00890066  RH  086%=      5-min Rain = 0
KAM3 251644Z 10002KT 09/07 A3035 RMK A01 T00870067  RH  087%=      5-min Rain = 0
KAM3 251645Z 10003KT 09/07 A3035 RMK A01 T00880071  RH  089%=      5-min Rain = 0
KAM3 251646Z 09003KT 09/07 A3035 RMK A01 T00890068  RH  086%=      5-min Rain = 0
KAM3 251647Z 07005KT 09/07 A3035 RMK A01 T00900067  RH  086%=      5-min Rain = 0
KAM3 251648Z 07003KT 09/07 A3035 RMK A01 T00890067  RH  086%=      5-min Rain = 0
KAM3 251649Z 07002KT 09/07 A3035 RMK A01 T00890067  RH  086%=      5-min Rain = 0
KAM3 251650Z 07002KT 09/07 A3035 RMK A01 T00880067  RH  087%=      5-min Rain = 0
KAM3 251651Z 06004KT 09/07 A3035 RMK A01 T00880067  RH  087%=      5-min Rain = 0
KAM3 251652Z 08003KT 09/07 A3035 RMK A01 T00890068  RH  087%=      5-min Rain = 0
KAM3 251653Z 11002KT 09/07 A3035 RMK A01 T00900067  RH  086%=      5-min Rain = 0
KAM3 251654Z 10002KT 09/07 A3035 RMK A01 T00900068  RH  086%=      5-min Rain = 0
KAM3 251655Z 06003KT 09/07 A3035 RMK A01 T00920070  RH  086%=      5-min Rain = 0
KAM3 251656Z 05004KT 09/07 A3035 RMK A01 T00940069  RH  084%=      5-min Rain = 0
KAM3 251657Z 09004KT 10/07 A3035 RMK A01 T00950067  RH  083%=      5-min Rain = 0
KAM3 251658Z 11005KT 10/07 A3035 RMK A01 T00960068  RH  083%=      5-min Rain = 0
KAM3 251659Z 13004KT 10/07 A3035 RMK A01 T00960067  RH  082%=      5-min Rain = 0
KAM3 251700Z 10003KT 10/07 A3035 RMK A01 T00960067  RH  082%=      5-min Rain = 0
KAM3 251701Z 09004KT 10/07 A3035 RMK A01 T00970067  RH  081%=      5-min Rain = 0
KAM3 251702Z 09004KT 10/07 A3035 RMK A01 T00970066  RH  081%=      5-min Rain = 0
KAM3 251703Z 06004KT 10/07 A3035 RMK A01 T00970066  RH  082%=      5-min Rain = 0
KAM3 251704Z 06006KT 10/07 A3035 RMK A01 T00960066  RH  082%=      5-min Rain = 0
KAM3 251705Z 05005KT 10/07 A3035 RMK A01 T00950066  RH  082%=      5-min Rain = 0
KAM3 251706Z 04004KT 10/07 A3035 RMK A01 T00950066  RH  082%=      5-min Rain = 0
KAM3 251707Z 04005KT 10/07 A3035 RMK A01 T00950066  RH  082%=      5-min Rain = 0
KAM3 251708Z 02004KT 10/07 A3035 RMK A01 T00950065  RH  082%=      5-min Rain = 0
KAM3 251709Z 01003KT 10/07 A3035 RMK A01 T00960066  RH  082%=      5-min Rain = 0
KAM3 251710Z 35002KT 10/07 A3035 RMK A01 T00960067  RH  082%=      5-min Rain = 0
KAM3 251711Z 04003KT 10/07 A3035 RMK A01 T00980069  RH  082%=      5-min Rain = 0
KAM3 251712Z 04006KT 10/07 A3035 RMK A01 T01010069  RH  081%=      5-min Rain = 0
KAM3 251713Z 05005KT 11/07 A3035 RMK A01 T01050073  RH  080%=      5-min Rain = 0
KAM3 251714Z 04006KT 11/07 A3035 RMK A01 T01080070  RH  077%=      5-min Rain = 0
KAM3 251715Z 03006KT 11/07 A3035 RMK A01 T01070068  RH  076%=      5-min Rain = 0
KAM3 251716Z 04007KT 11/07 A3035 RMK A01 T01060066  RH  076%=      5-min Rain = 0
KAM3 251717Z 03004KT 10/07 A3035 RMK A01 T01030066  RH  078%=      5-min Rain = 0
KAM3 251718Z 07007KT 10/07 A3035 RMK A01 T01020068  RH  079%=      5-min Rain = 0
KAM3 251719Z 05006KT 11/07 A3035 RMK A01 T01050067  RH  078%=      5-min Rain = 0
KAM3 251720Z 06004KT 10/06 A3035 RMK A01 T01030064  RH  077%=      5-min Rain = 0
KAM3 251721Z 07003KT 10/07 A3035 RMK A01 T01020066  RH  078%=      5-min Rain = 0
KAM3 251722Z 09003KT 10/07 A3035 RMK A01 T01020065  RH  078%=      5-min Rain = 0
KAM3 251723Z 11004KT 10/07 A3035 RMK A01 T01030066  RH  078%=      5-min Rain = 0
KAM3 251724Z 05004KT 10/07 A3035 RMK A01 T01030067  RH  078%=      5-min Rain = 0
KAM3 251725Z 02003KT 10/07 A3035 RMK A01 T01040067  RH  078%=      5-min Rain = 0
KAM3 251726Z 01004KT 10/07 A3034 RMK A01 T01040067  RH  078%=      5-min Rain = 0
KAM3 251727Z 03007KT 11/07 A3034 RMK A01 T01050067  RH  077%=      5-min Rain = 0
KAM3 251728Z 01005KT 11/07 A3034 RMK A01 T01060067  RH  077%=      5-min Rain = 0
KAM3 251729Z 02004KT 11/07 A3034 RMK A01 T01050068  RH  077%=      5-min Rain = 0
KAM3 251730Z 07005KT 11/07 A3034 RMK A01 T01070069  RH  077%=      5-min Rain = 0
KAM3 251731Z 08005KT 11/07 A3034 RMK A01 T01110068  RH  075%=      5-min Rain = 0
KAM3 251732Z 09005KT 11/07 A3034 RMK A01 T01100066  RH  074%=      5-min Rain = 0
KAM3 251733Z 11002KT 11/06 A3034 RMK A01 T01070064  RH  075%=      5-min Rain = 0
KAM3 251734Z 12003KT 11/07 A3034 RMK A01 T01060065  RH  076%=      5-min Rain = 0
KAM3 251735Z 10004KT 11/07 A3034 RMK A01 T01060066  RH  076%=      5-min Rain = 0
KAM3 251736Z 08004KT 11/07 A3034 RMK A01 T01070065  RH  075%=      5-min Rain = 0
KAM3 251737Z 08003KT 11/07 A3034 RMK A01 T01070065  RH  076%=      5-min Rain = 0
KAM3 251738Z 09002KT 11/07 A3034 RMK A01 T01080066  RH  075%=      5-min Rain = 0
KAM3 251739Z 11002KT 11/07 A3034 RMK A01 T01080065  RH  075%=      5-min Rain = 0
KAM3 251740Z 06004KT 11/07 A3034 RMK A01 T01080067  RH  076%=      5-min Rain = 0
KAM3 251741Z 09005KT 11/07 A3034 RMK A01 T01130071  RH  075%=      5-min Rain = 0
KAM3 251742Z 07003KT 12/07 A3034 RMK A01 T01150067  RH  072%=      5-min Rain = 0
KAM3 251743Z 04005KT 12/07 A3034 RMK A01 T01160066  RH  071%=      5-min Rain = 0
KAM3 251744Z 06007KT 12/07 A3034 RMK A01 T01160065  RH  071%=      5-min Rain = 0
KAM3 251745Z 07007KT 11/06 A3034 RMK A01 T01120063  RH  072%=      5-min Rain = 0
KAM3 251746Z 08005KT 11/07 A3034 RMK A01 T01100065  RH  074%=      5-min Rain = 0
KAM3 251747Z 08003KT 11/07 A3034 RMK A01 T01110068  RH  075%=      5-min Rain = 0
KAM3 251748Z 09005KT 11/07 A3034 RMK A01 T01140068  RH  073%=      5-min Rain = 0
KAM3 251749Z 07005KT 12/07 A3034 RMK A01 T01190072  RH  073%=      5-min Rain = 0
KAM3 251750Z 11008KT 12/07 A3034 RMK A01 T01230071  RH  070%=      5-min Rain = 0
KAM3 251751Z 11005KT 12/07 A3034 RMK A01 T01230069  RH  069%=      5-min Rain = 0
KAM3 251752Z 07004KT 12/07 A3034 RMK A01 T01220070  RH  070%=      5-min Rain = 0
KAM3 251753Z 07006KT 13/07 A3034 RMK A01 T01250071  RH  070%=      5-min Rain = 0
KAM3 251754Z 08004KT 13/07 A3034 RMK A01 T01250067  RH  068%=      5-min Rain = 0
KAM3 251755Z 05004KT 12/06 A3034 RMK A01 T01210064  RH  068%=      5-min Rain = 0
KAM3 251756Z 05005KT 12/07 A3034 RMK A01 T01170065  RH  070%=      5-min Rain = 0
KAM3 251757Z 05006KT 12/07 A3034 RMK A01 T01160065  RH  071%=      5-min Rain = 0
KAM3 251758Z 04006KT 12/06 A3034 RMK A01 T01160064  RH  070%=      5-min Rain = 0
KAM3 251759Z 03005KT 12/07 A3034 RMK A01 T01160066  RH  071%=      5-min Rain = 0
KAM3 251800Z 02005KT 12/06 A3034 RMK A01 T01170064  RH  070%=      5-min Rain = 0
KAM3 251801Z 05005KT 12/06 A3034 RMK A01 T01170064  RH  070%=      5-min Rain = 0
KAM3 251802Z 08009KT 12/06 A3034 RMK A01 T01170064  RH  070%=      5-min Rain = 0
KAM3 251803Z 09008KT 12/07 A3034 RMK A01 T01150065  RH  071%=      5-min Rain = 0
KAM3 251804Z 08007KT 12/07 A3034 RMK A01 T01160066  RH  072%=      5-min Rain = 0
KAM3 251805Z 06006KT 12/07 A3034 RMK A01 T01170067  RH  071%=      5-min Rain = 0
KAM3 251806Z 07005KT 12/07 A3034 RMK A01 T01200067  RH  070%=      5-min Rain = 0
KAM3 251807Z 05006KT 12/07 A3034 RMK A01 T01210066  RH  069%=      5-min Rain = 0
KAM3 251808Z 05005KT 12/07 A3033 RMK A01 T01220066  RH  068%=      5-min Rain = 0
KAM3 251809Z 03005KT 12/07 A3033 RMK A01 T01230067  RH  069%=      5-min Rain = 0
KAM3 251810Z 02003KT 12/07 A3033 RMK A01 T01240066  RH  068%=      5-min Rain = 0
KAM3 251811Z 04004KT 12/07 A3033 RMK A01 T01230066  RH  068%=      5-min Rain = 0
KAM3 251812Z 07008KT 13/07 A3033 RMK A01 T01260069  RH  068%=      5-min Rain = 0
KAM3 251813Z 07007KT 13/07 A3033 RMK A01 T01270067  RH  067%=      5-min Rain = 0
KAM3 251814Z 07006KT 13/07 A3033 RMK A01 T01250067  RH  068%=      5-min Rain = 0
KAM3 251815Z 07004KT 12/07 A3033 RMK A01 T01220065  RH  068%=      5-min Rain = 0
KAM3 251816Z 07003KT 12/06 A3033 RMK A01 T01190064  RH  069%=      5-min Rain = 0
KAM3 251817Z 08006KT 12/07 A3033 RMK A01 T01180065  RH  070%=      5-min Rain = 0
KAM3 251818Z 07005KT 12/07 A3033 RMK A01 T01180066  RH  070%=      5-min Rain = 0
KAM3 251819Z 05002KT 12/07 A3033 RMK A01 T01180065  RH  070%=      5-min Rain = 0
KAM3 251820Z 05002KT 12/06 A3033 RMK A01 T01180064  RH  070%=      5-min Rain = 0
KAM3 251821Z 02003KT 12/07 A3033 RMK A01 T01170065  RH  070%=      5-min Rain = 0
KAM3 251822Z 00002KT 12/06 A3033 RMK A01 T01170064  RH  070%=      5-min Rain = 0
KAM3 251823Z 07004KT 12/07 A3033 RMK A01 T01160065  RH  071%=      5-min Rain = 0
KAM3 251824Z 06003KT 12/06 A3033 RMK A01 T01160064  RH  070%=      5-min Rain = 0
KAM3 251825Z 04002KT 12/07 A3033 RMK A01 T01180066  RH  071%=      5-min Rain = 0
KAM3 251826Z 03002KT 12/07 A3033 RMK A01 T01190065  RH  069%=      5-min Rain = 0
KAM3 251827Z 02004KT 12/07 A3033 RMK A01 T01220070  RH  070%=      5-min Rain = 0
KAM3 251828Z 03005KT 13/07 A3033 RMK A01 T01270071  RH  069%=      5-min Rain = 0
KAM3 251829Z 06005KT 13/07 A3033 RMK A01 T01300071  RH  068%=      5-min Rain = 0
KAM3 251830Z 10004KT 14/07 A3032 RMK A01 T01350071  RH  065%=      5-min Rain = 0
KAM3 251831Z 12005KT 14/07 A3032 RMK A01 T01380069  RH  063%=      5-min Rain = 0
KAM3 251832Z 14003KT 14/07 A3032 RMK A01 T01370067  RH  063%=      5-min Rain = 0
KAM3 251833Z 08004KT 14/07 A3032 RMK A01 T01370066  RH  063%=      5-min Rain = 0
KAM3 251834Z 05003KT 13/07 A3032 RMK A01 T01340065  RH  063%=      5-min Rain = 0
KAM3 251835Z 09009KT 13/07 A3032 RMK A01 T01330068  RH  065%=      5-min Rain = 0
KAM3 251836Z 10009KT 14/07 A3032 RMK A01 T01370067  RH  063%=      5-min Rain = 0
KAM3 251837Z 09006KT 14/07 A3032 RMK A01 T01350067  RH  063%=      5-min Rain = 0
KAM3 251838Z 09006KT 13/06 A3032 RMK A01 T01320064  RH  063%=      5-min Rain = 0
KAM3 251839Z 08007KT 13/06 A3032 RMK A01 T01300064  RH  064%=      5-min Rain = 0
KAM3 251840Z 08005KT 13/06 A3032 RMK A01 T01300064  RH  065%=      5-min Rain = 0
KAM3 251841Z 07003KT 13/06 A3032 RMK A01 T01280064  RH  065%=      5-min Rain = 0
KAM3 251842Z 33000KT 13/07 A3032 RMK A01 T01280065  RH  066%=      5-min Rain = 0
KAM3 251843Z 00000KT 13/06 A3032 RMK A01 T01280064  RH  065%=      5-min Rain = 0
KAM3 251844Z 09003KT 13/06 A3032 RMK A01 T01280064  RH  065%=      5-min Rain = 0
KAM3 251845Z 09005KT 13/07 A3032 RMK A01 T01290066  RH  065%=      5-min Rain = 0
KAM3 251846Z 10006KT 13/07 A3032 RMK A01 T01320068  RH  065%=      5-min Rain = 0
KAM3 251847Z 11004KT 14/07 A3032 RMK A01 T01350066  RH  063%=      5-min Rain = 0
KAM3 251848Z 12006KT 14/07 A3032 RMK A01 T01360067  RH  063%=      5-min Rain = 0
KAM3 251849Z 11004KT 14/06 A3032 RMK A01 T01370064  RH  062%=      5-min Rain = 0
KAM3 251850Z 14003KT 14/07 A3031 RMK A01 T01350065  RH  063%=      5-min Rain = 0
KAM3 251851Z 10001KT 13/07 A3031 RMK A01 T01340065  RH  063%=      5-min Rain = 0
KAM3 251852Z 06005KT 13/07 A3031 RMK A01 T01340065  RH  063%=      5-min Rain = 0
KAM3 251853Z 06005KT 14/06 A3031 RMK A01 T01350063  RH  062%=      5-min Rain = 0
KAM3 251854Z 04007KT 14/07 A3031 RMK A01 T01370066  RH  062%=      5-min Rain = 0
KAM3 251855Z 02005KT 14/07 A3031 RMK A01 T01410066  RH  060%=      5-min Rain = 0
KAM3 251856Z 08006KT 14/07 A3031 RMK A01 T01420066  RH  060%=      5-min Rain = 0
KAM3 251857Z 11006KT 14/07 A3031 RMK A01 T01420067  RH  061%=      5-min Rain = 0
KAM3 251858Z 11006KT 14/07 A3031 RMK A01 T01410065  RH  060%=      5-min Rain = 0
KAM3 251859Z 09006KT 14/06 A3031 RMK A01 T01370063  RH  061%=      5-min Rain = 0
KAM3 251900Z 07004KT 13/06 A3031 RMK A01 T01340062  RH  062%=      5-min Rain = 0
KAM3 251901Z 08005KT 13/06 A3031 RMK A01 T01320064  RH  063%=      5-min Rain = 0
KAM3 251902Z 07003KT 13/07 A3031 RMK A01 T01340065  RH  063%=      5-min Rain = 0
KAM3 251903Z 05002KT 13/06 A3031 RMK A01 T01340064  RH  063%=      5-min Rain = 0
KAM3 251904Z 32001KT 14/06 A3031 RMK A01 T01350064  RH  062%=      5-min Rain = 0
KAM3 251905Z 29002KT 13/06 A3031 RMK A01 T01340064  RH  063%=      5-min Rain = 0
KAM3 251906Z 35001KT 14/07 A3031 RMK A01 T01350065  RH  063%=      5-min Rain = 0
KAM3 251907Z 07002KT 14/07 A3031 RMK A01 T01370066  RH  062%=      5-min Rain = 0
KAM3 251908Z 10005KT 14/07 A3031 RMK A01 T01410067  RH  061%=      5-min Rain = 0
KAM3 251909Z 10005KT 15/07 A3031 RMK A01 T01450070  RH  060%=      5-min Rain = 0
KAM3 251910Z 08006KT 15/07 A3031 RMK A01 T01490068  RH  058%=      5-min Rain = 0
KAM3 251911Z 08004KT 15/07 A3031 RMK A01 T01490066  RH  058%=      5-min Rain = 0
KAM3 251912Z 04004KT 15/07 A303 RMK A01 T01460065  RH  058%=      5-min Rain = 0
KAM3 251913Z 02004KT 15/07 A303 RMK A01 T01450065  RH  059%=      5-min Rain = 0
KAM3 251914Z 00002KT 14/07 A303 RMK A01 T01430067  RH  060%=      5-min Rain = 0
KAM3 251915Z 01001KT 14/07 A303 RMK A01 T01440068  RH  060%=      5-min Rain = 0
KAM3 251916Z 06003KT 15/07 A303 RMK A01 T01470071  RH  060%=      5-min Rain = 0
KAM3 251917Z 08004KT 15/07 A303 RMK A01 T01510071  RH  059%=      5-min Rain = 0
KAM3 251918Z 10007KT 16/07 A303 RMK A01 T01560070  RH  057%=      5-min Rain = 0
KAM3 251919Z 09006KT 16/07 A303 RMK A01 T01560067  RH  055%=      5-min Rain = 0
KAM3 251920Z 10005KT 15/07 A303 RMK A01 T01500066  RH  057%=      5-min Rain = 0
KAM3 251921Z 11002KT 15/07 A303 RMK A01 T01480067  RH  059%=      5-min Rain = 0
KAM3 251922Z 14005KT 15/07 A303 RMK A01 T01500069  RH  058%=      5-min Rain = 0
KAM3 251923Z 15006KT 16/07 A303 RMK A01 T01550069  RH  057%=      5-min Rain = 0
KAM3 251924Z 16006KT 16/07 A303 RMK A01 T01570065  RH  054%=      5-min Rain = 0
KAM3 251925Z 17006KT 15/07 A303 RMK A01 T01540065  RH  055%=      5-min Rain = 0
KAM3 251926Z 17004KT 15/07 A303 RMK A01 T01530065  RH  056%=      5-min Rain = 0
KAM3 251927Z 18002KT 15/06 A303 RMK A01 T01520064  RH  056%=      5-min Rain = 0
KAM3 251928Z 17003KT 15/06 A303 RMK A01 T01510064  RH  056%=      5-min Rain = 0
KAM3 251929Z 19005KT 15/07 A303 RMK A01 T01530065  RH  056%=      5-min Rain = 0
KAM3 251930Z 21004KT 15/06 A303 RMK A01 T01530064  RH  055%=      5-min Rain = 0
KAM3 251931Z 21003KT 15/06 A303 RMK A01 T01520063  RH  055%=      5-min Rain = 0
KAM3 251932Z 23002KT 15/07 A3029 RMK A01 T01510066  RH  057%=      5-min Rain = 0
KAM3 251933Z 24002KT 15/06 A3029 RMK A01 T01510064  RH  056%=      5-min Rain = 0
KAM3 251934Z 27001KT 15/06 A3029 RMK A01 T01500062  RH  055%=      5-min Rain = 0
KAM3 251935Z 12000KT 15/06 A3029 RMK A01 T01490062  RH  056%=      5-min Rain = 0
KAM3 251936Z 13003KT 15/07 A3029 RMK A01 T01480065  RH  058%=      5-min Rain = 0
KAM3 251937Z 14002KT 15/06 A3029 RMK A01 T01490064  RH  057%=      5-min Rain = 0
KAM3 251938Z 16006KT 15/07 A3029 RMK A01 T01510067  RH  057%=      5-min Rain = 0
KAM3 251939Z 17009KT 16/07 A3029 RMK A01 T01550067  RH  056%=      5-min Rain = 0
KAM3 251940Z 18007KT 16/07 A3029 RMK A01 T01570066  RH  055%=      5-min Rain = 0
KAM3 251941Z 16002KT 16/07 A3029 RMK A01 T01560066  RH  055%=      5-min Rain = 0
KAM3 251942Z 19007KT 16/07 A3029 RMK A01 T01560066  RH  055%=      5-min Rain = 0
KAM3 251943Z 21005KT 16/07 A3029 RMK A01 T01550066  RH  055%=      5-min Rain = 0
KAM3 251944Z 22007KT 16/07 A3029 RMK A01 T01570067  RH  055%=      5-min Rain = 0
KAM3 251945Z 23006KT 16/07 A3029 RMK A01 T01580065  RH  054%=      5-min Rain = 0
KAM3 251946Z 24006KT 16/07 A3029 RMK A01 T01560065  RH  054%=      5-min Rain = 0
KAM3 251947Z 23005KT 16/07 A3029 RMK A01 T01560065  RH  055%=      5-min Rain = 0
KAM3 251948Z 24006KT 16/07 A3029 RMK A01 T01560066  RH  055%=      5-min Rain = 0
KAM3 251949Z 26004KT 16/07 A3029 RMK A01 T01560066  RH  055%=      5-min Rain = 0
KAM3 251950Z 27005KT 16/07 A3029 RMK A01 T01560065  RH  055%=      5-min Rain = 0
KAM3 251951Z 28004KT 16/07 A3029 RMK A01 T01560065  RH  055%=      5-min Rain = 0
KAM3 251952Z 25005KT 16/07 A3028 RMK A01 T01580066  RH  054%=      5-min Rain = 0
KAM3 251953Z 25004KT 16/07 A3028 RMK A01 T01580065  RH  054%=      5-min Rain = 0
KAM3 251954Z 26003KT 16/07 A3028 RMK A01 T01590068  RH  055%=      5-min Rain = 0
KAM3 251955Z 11004KT 16/07 A3028 RMK A01 T01610068  RH  054%=      5-min Rain = 0
KAM3 251956Z 19003KT 16/07 A3028 RMK A01 T01620066  RH  053%=      5-min Rain = 0
KAM3 251957Z 15004KT 16/07 A3028 RMK A01 T01620068  RH  054%=      5-min Rain = 0
KAM3 251958Z 17006G11KT 16/07 A3028 RMK A01 T01640067  RH  052%=      5-min Rain = 0
KAM3 251959Z 16009KT 16/07 A3028 RMK A01 T01640067  RH  053%=      5-min Rain = 0
KAM3 252000Z 17008KT 16/07 A3028 RMK A01 T01620066  RH  053%=      5-min Rain = 0
KAM3 252001Z 17007KT 16/07 A3028 RMK A01 T01610066  RH  053%=      5-min Rain = 0
KAM3 252002Z 17006KT 16/07 A3028 RMK A01 T01600066  RH  054%=      5-min Rain = 0
KAM3 252003Z 18003KT 16/07 A3028 RMK A01 T01590066  RH  054%=      5-min Rain = 0
KAM3 252004Z 14003KT 16/07 A3028 RMK A01 T01600066  RH  054%=      5-min Rain = 0
KAM3 252005Z 19006KT 16/07 A3028 RMK A01 T01610068  RH  054%=      5-min Rain = 0
KAM3 252006Z 22006KT 16/07 A3028 RMK A01 T01630066  RH  053%=      5-min Rain = 0
KAM3 252007Z 23005KT 16/07 A3028 RMK A01 T01610065  RH  053%=      5-min Rain = 0
KAM3 252008Z 22004KT 16/07 A3028 RMK A01 T01600065  RH  053%=      5-min Rain = 0
KAM3 252009Z 20006KT 16/07 A3028 RMK A01 T01630071  RH  054%=      5-min Rain = 0
KAM3 252010Z 20007KT 17/07 A3028 RMK A01 T01670069  RH  052%=      5-min Rain = 0
KAM3 252011Z 18006KT 17/07 A3028 RMK A01 T01670068  RH  052%=      5-min Rain = 0
KAM3 252012Z 14006KT 17/07 A3028 RMK A01 T01660069  RH  052%=      5-min Rain = 0
KAM3 252013Z 15007KT 17/07 A3027 RMK A01 T01660068  RH  052%=      5-min Rain = 0
KAM3 252014Z 15006KT 17/07 A3027 RMK A01 T01650068  RH  053%=      5-min Rain = 0
KAM3 252015Z 14004KT 16/07 A3027 RMK A01 T01640067  RH  053%=      5-min Rain = 0
KAM3 252016Z 13005KT 16/07 A3027 RMK A01 T01640068  RH  053%=      5-min Rain = 0
KAM3 252017Z 13005KT 16/07 A3027 RMK A01 T01630067  RH  053%=      5-min Rain = 0
KAM3 252018Z 13005KT 16/07 A3027 RMK A01 T01620066  RH  053%=      5-min Rain = 0
KAM3 252019Z 12004KT 16/07 A3027 RMK A01 T01610065  RH  053%=      5-min Rain = 0
KAM3 252020Z 15003KT 16/07 A3027 RMK A01 T01600066  RH  054%=      5-min Rain = 0
KAM3 252021Z 21002KT 16/07 A3027 RMK A01 T01620071  RH  055%=      5-min Rain = 0
KAM3 252022Z 16005G11KT 17/07 A3027 RMK A01 T01670070  RH  053%=      5-min Rain = 0
KAM3 252023Z 16006KT 17/07 A3027 RMK A01 T01700069  RH  052%=      5-min Rain = 0
KAM3 252024Z 16004KT 17/07 A3027 RMK A01 T01710065  RH  050%=      5-min Rain = 0
KAM3 252025Z 12004KT 17/07 A3027 RMK A01 T01680065  RH  050%=      5-min Rain = 0
KAM3 252026Z 18008KT 17/07 A3027 RMK A01 T01680066  RH  051%=      5-min Rain = 0
KAM3 252027Z 21007KT 17/07 A3027 RMK A01 T01690066  RH  050%=      5-min Rain = 0
KAM3 252028Z 22006KT 17/07 A3027 RMK A01 T01690065  RH  050%=      5-min Rain = 0
KAM3 252029Z 19004KT 17/07 A3027 RMK A01 T01670065  RH  051%=      5-min Rain = 0
KAM3 252030Z 11004KT 17/07 A3027 RMK A01 T01670066  RH  051%=      5-min Rain = 0
KAM3 252031Z 10005KT 17/07 A3027 RMK A01 T01690066  RH  051%=      5-min Rain = 0
KAM3 252032Z 08003KT 17/07 A3027 RMK A01 T01720067  RH  050%=      5-min Rain = 0
KAM3 252033Z 07001KT 17/07 A3027 RMK A01 T01730067  RH  050%=      5-min Rain = 0
KAM3 252034Z 03001KT 17/07 A3026 RMK A01 T01730066  RH  049%=      5-min Rain = 0
KAM3 252035Z 26001KT 17/06 A3026 RMK A01 T01700064  RH  049%=      5-min Rain = 0
KAM3 252036Z 12002KT 17/07 A3026 RMK A01 T01720070  RH  051%=      5-min Rain = 0
KAM3 252037Z 19005KT 18/07 A3026 RMK A01 T01760066  RH  048%=      5-min Rain = 0
KAM3 252038Z 20006KT 18/07 A3026 RMK A01 T01770066  RH  048%=      5-min Rain = 0
KAM3 252039Z 21004KT 18/06 A3026 RMK A01 T01780064  RH  047%=      5-min Rain = 0
KAM3 252040Z 22003KT 18/07 A3026 RMK A01 T01760066  RH  048%=      5-min Rain = 0
KAM3 252041Z 22007KT 18/07 A3026 RMK A01 T01760066  RH  049%=      5-min Rain = 0
KAM3 252042Z 23004KT 18/07 A3026 RMK A01 T01750065  RH  048%=      5-min Rain = 0
KAM3 252043Z 17004KT 18/07 A3026 RMK A01 T01750065  RH  049%=      5-min Rain = 0
KAM3 252044Z 18004KT 18/06 A3026 RMK A01 T01750064  RH  048%=      5-min Rain = 0
KAM3 252045Z 21004KT 18/07 A3026 RMK A01 T01770067  RH  049%=      5-min Rain = 0
KAM3 252046Z 16004KT 18/07 A3026 RMK A01 T01800068  RH  048%=      5-min Rain = 0
KAM3 252047Z 17005KT 18/07 A3026 RMK A01 T01810066  RH  047%=      5-min Rain = 0
KAM3 252048Z 17003KT 18/07 A3026 RMK A01 T01800065  RH  047%=      5-min Rain = 0
KAM3 252049Z 19003KT 18/07 A3026 RMK A01 T01770066  RH  048%=      5-min Rain = 0
KAM3 252050Z 19004KT 18/07 A3026 RMK A01 T01780067  RH  048%=      5-min Rain = 0
KAM3 252051Z 19003KT 18/07 A3026 RMK A01 T01790065  RH  047%=      5-min Rain = 0
KAM3 252052Z 20002KT 18/07 A3026 RMK A01 T01790065  RH  047%=      5-min Rain = 0
KAM3 252053Z 21006KT 18/07 A3026 RMK A01 T01790065  RH  047%=      5-min Rain = 0
KAM3 252054Z 22004KT 18/06 A3026 RMK A01 T01790062  RH  046%=      5-min Rain = 0
KAM3 252055Z 22006KT 18/06 A3026 RMK A01 T01780063  RH  047%=      5-min Rain = 0
KAM3 252056Z 22003KT 18/06 A3026 RMK A01 T01790061  RH  046%=      5-min Rain = 0
KAM3 252057Z 27000KT 18/06 A3026 RMK A01 T01770059  RH  046%=      5-min Rain = 0
KAM3 252058Z 27003KT 18/06 A3026 RMK A01 T01750060  RH  047%=      5-min Rain = 0
KAM3 252059Z 27002KT 18/06 A3026 RMK A01 T01750061  RH  047%=      5-min Rain = 0
KAM3 252100Z 32002KT 18/06 A3025 RMK A01 T01770062  RH  047%=      5-min Rain = 0
KAM3 252101Z 35003KT 18/06 A3025 RMK A01 T01780060  RH  046%=      5-min Rain = 0
KAM3 252102Z 27002KT 18/06 A3025 RMK A01 T01770059  RH  046%=      5-min Rain = 0
KAM3 252103Z 25002KT 18/06 A3025 RMK A01 T01770061  RH  047%=      5-min Rain = 0
KAM3 252104Z 25004KT 18/06 A3025 RMK A01 T01800062  RH  046%=      5-min Rain = 0
KAM3 252105Z 24005KT 18/06 A3025 RMK A01 T01820061  RH  045%=      5-min Rain = 0
KAM3 252106Z 22003KT 18/06 A3025 RMK A01 T01820060  RH  045%=      5-min Rain = 0
KAM3 252107Z 05004KT 18/06 A3025 RMK A01 T01800061  RH  046%=      5-min Rain = 0
KAM3 252108Z 05005KT 18/06 A3025 RMK A01 T01760062  RH  047%=      5-min Rain = 0
KAM3 252109Z 06006KT 18/06 A3025 RMK A01 T01780063  RH  047%=      5-min Rain = 0
KAM3 252110Z 03004KT 18/06 A3025 RMK A01 T01780061  RH  046%=      5-min Rain = 0
KAM3 252111Z 03004KT 18/06 A3025 RMK A01 T01750062  RH  047%=      5-min Rain = 0
KAM3 252112Z 07008KT 18/06 A3025 RMK A01 T01760063  RH  048%=      5-min Rain = 0
KAM3 252113Z 09008KT 18/07 A3025 RMK A01 T01810067  RH  047%=      5-min Rain = 0
KAM3 252114Z 13011KT 19/07 A3025 RMK A01 T01860065  RH  045%=      5-min Rain = 0
KAM3 252115Z 16007KT 19/06 A3025 RMK A01 T01860064  RH  045%=      5-min Rain = 0
KAM3 252116Z 16005KT 19/06 A3025 RMK A01 T01850062  RH  045%=      5-min Rain = 0
KAM3 252117Z 14005KT 18/06 A3025 RMK A01 T01840060  RH  044%=      5-min Rain = 0
KAM3 252118Z 13004KT 19/06 A3025 RMK A01 T01850060  RH  044%=      5-min Rain = 0
KAM3 252119Z 13003KT 19/06 A3025 RMK A01 T01850061  RH  044%=      5-min Rain = 0
KAM3 252120Z 15005KT 19/06 A3025 RMK A01 T01850061  RH  044%=      5-min Rain = 0
KAM3 252121Z 20003KT 19/06 A3025 RMK A01 T01860060  RH  044%=      5-min Rain = 0
KAM3 252122Z 22005KT 19/06 A3025 RMK A01 T01860061  RH  044%=      5-min Rain = 0
KAM3 252123Z 24001KT 19/06 A3024 RMK A01 T01860061  RH  044%=      5-min Rain = 0
KAM3 252124Z 23004KT 19/06 A3024 RMK A01 T01870062  RH  044%=      5-min Rain = 0
KAM3 252125Z 19003KT 19/06 A3024 RMK A01 T01870061  RH  044%=      5-min Rain = 0
KAM3 252126Z 19004KT 19/06 A3024 RMK A01 T01880060  RH  043%=      5-min Rain = 0
KAM3 252127Z 18003KT 19/06 A3024 RMK A01 T01870059  RH  043%=      5-min Rain = 0
KAM3 252128Z 13002KT 19/06 A3024 RMK A01 T01850058  RH  043%=      5-min Rain = 0
KAM3 252129Z 10004KT 18/06 A3024 RMK A01 T01840057  RH  043%=      5-min Rain = 0
KAM3 252130Z 10003KT 18/06 A3024 RMK A01 T01840059  RH  044%=      5-min Rain = 0
KAM3 252131Z 10006KT 19/06 A3024 RMK A01 T01870058  RH  043%=      5-min Rain = 0
KAM3 252132Z 08005KT 19/06 A3024 RMK A01 T01870055  RH  042%=      5-min Rain = 0
KAM3 252133Z 09005KT 18/05 A3024 RMK A01 T01840053  RH  042%=      5-min Rain = 0
KAM3 252134Z 11006KT 18/05 A3024 RMK A01 T01830054  RH  043%=      5-min Rain = 0
KAM3 252135Z 14005KT 18/06 A3024 RMK A01 T01840055  RH  043%=      5-min Rain = 0
KAM3 252136Z 16006KT 18/05 A3024 RMK A01 T01840054  RH  042%=      5-min Rain = 0
KAM3 252137Z 15007KT 19/06 A3024 RMK A01 T01870055  RH  042%=      5-min Rain = 0
KAM3 252138Z 12005KT 19/06 A3024 RMK A01 T01880055  RH  042%=      5-min Rain = 0
KAM3 252139Z 14005KT 19/05 A3024 RMK A01 T01870054  RH  042%=      5-min Rain = 0
KAM3 252140Z 18006KT 19/06 A3024 RMK A01 T01860055  RH  042%=      5-min Rain = 0
KAM3 252141Z 17007KT 19/05 A3024 RMK A01 T01870054  RH  041%=      5-min Rain = 0
KAM3 252142Z 17003KT 19/05 A3024 RMK A01 T01870051  RH  041%=      5-min Rain = 0
KAM3 252143Z 17003KT 19/05 A3024 RMK A01 T01850050  RH  041%=      5-min Rain = 0
KAM3 252144Z 16005KT 18/05 A3024 RMK A01 T01830052  RH  042%=      5-min Rain = 0
KAM3 252145Z 15007KT 19/05 A3024 RMK A01 T01850054  RH  042%=      5-min Rain = 0
KAM3 252146Z 14008KT 19/05 A3024 RMK A01 T01890052  RH  041%=      5-min Rain = 0
KAM3 252147Z 13007KT 19/05 A3024 RMK A01 T01900051  RH  040%=      5-min Rain = 0
KAM3 252148Z 11007KT 19/05 A3024 RMK A01 T01900048  RH  039%=      5-min Rain = 0
KAM3 252149Z 11006KT 19/04 A3024 RMK A01 T01860043  RH  039%=      5-min Rain = 0
KAM3 252150Z 12005KT 18/04 A3024 RMK A01 T01830043  RH  039%=      5-min Rain = 0
KAM3 252151Z 14006KT 18/04 A3024 RMK A01 T01820043  RH  040%=      5-min Rain = 0
KAM3 252152Z 14004KT 18/04 A3024 RMK A01 T01820042  RH  039%=      5-min Rain = 0
KAM3 252153Z 17002KT 19/04 A3024 RMK A01 T01850043  RH  039%=      5-min Rain = 0
KAM3 252154Z 25000KT 19/04 A3024 RMK A01 T01860038  RH  038%=      5-min Rain = 0
KAM3 252155Z 27001KT 19/04 A3024 RMK A01 T01860041  RH  038%=      5-min Rain = 0
KAM3 252156Z 28001KT 19/04 A3024 RMK A01 T01870040  RH  038%=      5-min Rain = 0
KAM3 252157Z 16003KT 19/04 A3024 RMK A01 T01880039  RH  037%=      5-min Rain = 0
KAM3 252158Z 17005KT 19/05 A3024 RMK A01 T01880048  RH  040%=      5-min Rain = 0
KAM3 252159Z 17003KT 19/05 A3024 RMK A01 T01860051  RH  041%=      5-min Rain = 0
KAM3 252200Z 05001KT 18/05 A3024 RMK A01 T01840052  RH  042%=      5-min Rain = 0
KAM3 252201Z 19001KT 18/05 A3024 RMK A01 T01840051  RH  041%=      5-min Rain = 0
KAM3 252202Z 15005KT 19/05 A3024 RMK A01 T01850051  RH  041%=      5-min Rain = 0
KAM3 252203Z 17006KT 19/05 A3024 RMK A01 T01860050  RH  041%=      5-min Rain = 0
KAM3 252204Z 18005KT 19/05 A3024 RMK A01 T01850049  RH  041%=      5-min Rain = 0
KAM3 252205Z 17004KT 18/05 A3024 RMK A01 T01840050  RH  041%=      5-min Rain = 0
KAM3 252206Z 15004KT 19/05 A3024 RMK A01 T01850047  RH  040%=      5-min Rain = 0
KAM3 252207Z 15002KT 19/05 A3023 RMK A01 T01850047  RH  040%=      5-min Rain = 0
KAM3 252208Z 15000KT 19/05 A3023 RMK A01 T01850049  RH  041%=      5-min Rain = 0
KAM3 252209Z 23000KT 19/05 A3023 RMK A01 T01850050  RH  041%=      5-min Rain = 0
KAM3 252210Z 34001KT 19/05 A3023 RMK A01 T01870048  RH  040%=      5-min Rain = 0
KAM3 252211Z 33002KT 19/05 A3023 RMK A01 T01880047  RH  039%=      5-min Rain = 0
KAM3 252212Z 33003KT 19/05 A3023 RMK A01 T01880047  RH  039%=      5-min Rain = 0
KAM3 252213Z 35002KT 19/05 A3023 RMK A01 T01860047  RH  040%=      5-min Rain = 0
KAM3 252214Z 36001KT 19/05 A3023 RMK A01 T01850049  RH  041%=      5-min Rain = 0
KAM3 252215Z 32001KT 19/05 A3023 RMK A01 T01850048  RH  040%=      5-min Rain = 0
KAM3 252216Z 18003KT 19/05 A3023 RMK A01 T01860049  RH  040%=      5-min Rain = 0
KAM3 252217Z 17004KT 19/05 A3023 RMK A01 T01870049  RH  040%=      5-min Rain = 0
KAM3 252218Z 18005KT 19/05 A3023 RMK A01 T01880050  RH  040%=      5-min Rain = 0
KAM3 252219Z 17007KT 19/05 A3023 RMK A01 T01900049  RH  039%=      5-min Rain = 0
KAM3 252220Z 17004KT 19/05 A3023 RMK A01 T01890049  RH  040%=      5-min Rain = 0
KAM3 252221Z 22002KT 19/05 A3023 RMK A01 T01890053  RH  041%=      5-min Rain = 0
KAM3 252222Z 17005KT 19/05 A3023 RMK A01 T01890050  RH  040%=      5-min Rain = 0
KAM3 252223Z 17004KT 19/05 A3023 RMK A01 T01900049  RH  040%=      5-min Rain = 0
KAM3 252224Z 17002KT 19/05 A3023 RMK A01 T01890049  RH  040%=      5-min Rain = 0
KAM3 252225Z 19001KT 19/05 A3023 RMK A01 T01880051  RH  041%=      5-min Rain = 0
KAM3 252226Z 06003KT 19/05 A3023 RMK A01 T01900054  RH  041%=      5-min Rain = 0
KAM3 252227Z 13006KT 19/05 A3023 RMK A01 T01920054  RH  040%=      5-min Rain = 0
KAM3 252228Z 13006KT 19/05 A3023 RMK A01 T01910054  RH  040%=      5-min Rain = 0
KAM3 252229Z 14007KT 19/05 A3023 RMK A01 T01900053  RH  041%=      5-min Rain = 0
KAM3 252230Z 15008KT 19/05 A3023 RMK A01 T01890051  RH  040%=      5-min Rain = 0
KAM3 252231Z 15009KT 19/05 A3023 RMK A01 T01890052  RH  041%=      5-min Rain = 0
KAM3 252232Z 13008KT 19/05 A3023 RMK A01 T01880052  RH  041%=      5-min Rain = 0
KAM3 252233Z 12008KT 19/05 A3023 RMK A01 T01870052  RH  041%=      5-min Rain = 0
KAM3 252234Z 12004KT 19/05 A3023 RMK A01 T01860054  RH  042%=      5-min Rain = 0
KAM3 252235Z 09004KT 19/05 A3023 RMK A01 T01860054  RH  042%=      5-min Rain = 0
KAM3 252236Z 08003KT 19/05 A3023 RMK A01 T01860052  RH  041%=      5-min Rain = 0
KAM3 252237Z 12005KT 19/05 A3023 RMK A01 T01860053  RH  042%=      5-min Rain = 0
KAM3 252238Z 13005KT 19/05 A3023 RMK A01 T01860054  RH  042%=      5-min Rain = 0
KAM3 252239Z 18002KT 19/05 A3023 RMK A01 T01860054  RH  042%=      5-min Rain = 0
KAM3 252240Z 17001KT 19/05 A3023 RMK A01 T01860054  RH  042%=      5-min Rain = 0
KAM3 252241Z 13002KT 19/05 A3023 RMK A01 T01860053  RH  042%=      5-min Rain = 0
KAM3 252242Z 10002KT 19/05 A3023 RMK A01 T01860054  RH  042%=      5-min Rain = 0
KAM3 252243Z 08003KT 19/06 A3023 RMK A01 T01870055  RH  042%=      5-min Rain = 0
KAM3 252244Z 10003KT 19/06 A3023 RMK A01 T01870056  RH  042%=      5-min Rain = 0
KAM3 252245Z 14007KT 19/06 A3023 RMK A01 T01870055  RH  042%=      5-min Rain = 0
KAM3 252246Z 14007KT 19/05 A3023 RMK A01 T01880054  RH  041%=      5-min Rain = 0
KAM3 252247Z 13006KT 19/05 A3023 RMK A01 T01880053  RH  041%=      5-min Rain = 0
KAM3 252248Z 13005KT 19/05 A3023 RMK A01 T01870052  RH  041%=      5-min Rain = 0
KAM3 252249Z 14006KT 18/05 A3023 RMK A01 T01840051  RH  041%=      5-min Rain = 0
KAM3 252250Z 13004KT 18/05 A3023 RMK A01 T01830053  RH  042%=      5-min Rain = 0
KAM3 252251Z 11003KT 18/05 A3023 RMK A01 T01830052  RH  042%=      5-min Rain = 0
KAM3 252252Z 04002KT 18/05 A3023 RMK A01 T01840052  RH  042%=      5-min Rain = 0
KAM3 252253Z 09004KT 18/05 A3022 RMK A01 T01840052  RH  042%=      5-min Rain = 0
KAM3 252254Z 12004KT 19/05 A3023 RMK A01 T01850053  RH  042%=      5-min Rain = 0
KAM3 252255Z 14006KT 19/05 A3023 RMK A01 T01870053  RH  041%=      5-min Rain = 0
KAM3 252256Z 12005KT 19/05 A3023 RMK A01 T01880053  RH  041%=      5-min Rain = 0
KAM3 252257Z 14002KT 19/05 A3023 RMK A01 T01870052  RH  041%=      5-min Rain = 0
KAM3 252258Z 33001KT 19/05 A3022 RMK A01 T01860052  RH  041%=      5-min Rain = 0
KAM3 252259Z 20000KT 19/05 A3022 RMK A01 T01860053  RH  041%=      5-min Rain = 0
KAM3 252300Z 18001KT 19/05 A3022 RMK A01 T01870052  RH  041%=      5-min Rain = 0
KAM3 252301Z 14003KT 19/05 A3022 RMK A01 T01890053  RH  041%=      5-min Rain = 0
KAM3 252302Z 16003KT 19/05 A3022 RMK A01 T01900054  RH  041%=      5-min Rain = 0
KAM3 252303Z 12007KT 19/06 A3022 RMK A01 T01920055  RH  040%=      5-min Rain = 0
KAM3 252304Z 11005KT 19/06 A3022 RMK A01 T01940056  RH  041%=      5-min Rain = 0
KAM3 252305Z 13006KT 19/06 A3022 RMK A01 T01940055  RH  040%=      5-min Rain = 0
KAM3 252306Z 13006KT 19/05 A3022 RMK A01 T01930052  RH  040%=      5-min Rain = 0
KAM3 252307Z 12006KT 19/05 A3022 RMK A01 T01910053  RH  040%=      5-min Rain = 0
KAM3 252308Z 10004KT 19/05 A3022 RMK A01 T01890053  RH  041%=      5-min Rain = 0
KAM3 252309Z 10006KT 19/05 A3022 RMK A01 T01890052  RH  041%=      5-min Rain = 0
KAM3 252310Z 14005KT 19/05 A3022 RMK A01 T01890053  RH  041%=      5-min Rain = 0
KAM3 252311Z 13005KT 19/05 A3022 RMK A01 T01900052  RH  040%=      5-min Rain = 0
KAM3 252312Z 11004KT 19/05 A3022 RMK A01 T01900052  RH  040%=      5-min Rain = 0
KAM3 252313Z 13002KT 19/05 A3022 RMK A01 T01890050  RH  040%=      5-min Rain = 0
KAM3 252314Z 13006KT 19/05 A3022 RMK A01 T01890053  RH  041%=      5-min Rain = 0
KAM3 252315Z 13004KT 19/05 A3022 RMK A01 T01890052  RH  041%=      5-min Rain = 0
KAM3 252316Z 12004KT 19/05 A3022 RMK A01 T01880054  RH  041%=      5-min Rain = 0
KAM3 252317Z 14007KT 19/06 A3022 RMK A01 T01890055  RH  041%=      5-min Rain = 0
KAM3 252318Z 14007KT 19/06 A3022 RMK A01 T01910056  RH  041%=      5-min Rain = 0
KAM3 252319Z 13008KT 19/06 A3023 RMK A01 T01920055  RH  041%=      5-min Rain = 0
KAM3 252320Z 13006KT 19/06 A3023 RMK A01 T01910055  RH  041%=      5-min Rain = 0
KAM3 252321Z 14004KT 19/06 A3023 RMK A01 T01900055  RH  041%=      5-min Rain = 0
KAM3 252322Z 14003KT 19/06 A3023 RMK A01 T01900055  RH  041%=      5-min Rain = 0
KAM3 252323Z 12003G8KT 19/06 A3022 RMK A01 T01900056  RH  041%=      5-min Rain = 0
KAM3 252324Z 11007KT 19/06 A3022 RMK A01 T01900056  RH  041%=      5-min Rain = 0
KAM3 252325Z 12008KT 19/06 A3022 RMK A01 T01910056  RH  041%=      5-min Rain = 0
KAM3 252326Z 13005KT 19/06 A3022 RMK A01 T01910056  RH  041%=      5-min Rain = 0
KAM3 252327Z 13004KT 19/06 A3022 RMK A01 T01910056  RH  041%=      5-min Rain = 0
KAM3 252328Z 12006KT 19/06 A3022 RMK A01 T01900056  RH  041%=      5-min Rain = 0
KAM3 252329Z 12008KT 19/06 A3022 RMK A01 T01910057  RH  041%=      5-min Rain = 0
KAM3 252330Z 10007KT 19/06 A3022 RMK A01 T01900056  RH  041%=      5-min Rain = 0
KAM3 252331Z 09007KT 19/06 A3022 RMK A01 T01900056  RH  042%=      5-min Rain = 0
KAM3 252332Z 10006KT 19/05 A3022 RMK A01 T01890053  RH  041%=      5-min Rain = 0
KAM3 252333Z 11006KT 19/05 A3022 RMK A01 T01880053  RH  041%=      5-min Rain = 0
KAM3 252334Z 10007KT 19/05 A3022 RMK A01 T01870054  RH  042%=      5-min Rain = 0
KAM3 252335Z 09004KT 19/05 A3022 RMK A01 T01860054  RH  042%=      5-min Rain = 0
KAM3 252336Z 10005KT 19/05 A3022 RMK A01 T01860054  RH  042%=      5-min Rain = 0
KAM3 252337Z 13007KT 19/06 A3022 RMK A01 T01870056  RH  042%=      5-min Rain = 0
KAM3 252338Z 15007KT 19/06 A3022 RMK A01 T01870055  RH  042%=      5-min Rain = 0
KAM3 252339Z 15006KT 19/06 A3022 RMK A01 T01880055  RH  042%=      5-min Rain = 0
KAM3 252340Z 16004KT 19/05 A3022 RMK A01 T01880053  RH  041%=      5-min Rain = 0
KAM3 252341Z 16004KT 19/05 A3022 RMK A01 T01880053  RH  041%=      5-min Rain = 0
KAM3 252342Z 15004KT 19/05 A3022 RMK A01 T01880054  RH  041%=      5-min Rain = 0
KAM3 252343Z 13006KT 19/05 A3022 RMK A01 T01890054  RH  041%=      5-min Rain = 0
KAM3 252344Z 14005KT 19/05 A3022 RMK A01 T01900054  RH  041%=      5-min Rain = 0
KAM3 252345Z 13005KT 19/05 A3022 RMK A01 T01900053  RH  041%=      5-min Rain = 0
KAM3 252346Z 13004KT 19/05 A3022 RMK A01 T01890054  RH  041%=      5-min Rain = 0
KAM3 252347Z 12005KT 19/06 A3022 RMK A01 T01890055  RH  042%=      5-min Rain = 0
KAM3 252348Z 14005KT 19/06 A3022 RMK A01 T01890056  RH  042%=      5-min Rain = 0
KAM3 252349Z 13005KT 19/06 A3022 RMK A01 T01900057  RH  042%=      5-min Rain = 0
KAM3 252350Z 10007KT 19/06 A3023 RMK A01 T01910056  RH  041%=      5-min Rain = 0
KAM3 252351Z 14005KT 19/06 A3023 RMK A01 T01900057  RH  042%=      5-min Rain = 0
KAM3 252352Z 14004KT 19/05 A3023 RMK A01 T01900053  RH  040%=      5-min Rain = 0
KAM3 252353Z 14005KT 19/05 A3023 RMK A01 T01910052  RH  040%=      5-min Rain = 0
KAM3 252354Z 14005KT 19/05 A3023 RMK A01 T01910050  RH  039%=      5-min Rain = 0
KAM3 252355Z 16005KT 19/05 A3023 RMK A01 T01910049  RH  039%=      5-min Rain = 0
KAM3 252356Z 15006KT 19/04 A3023 RMK A01 T01910044  RH  038%=      5-min Rain = 0
KAM3 252357Z 16005KT 19/04 A3023 RMK A01 T01910043  RH  038%=      5-min Rain = 0
KAM3 252358Z 17004KT 19/04 A3023 RMK A01 T01900042  RH  037%=      5-min Rain = 0
KAM3 252359Z 16002KT 19/04 A3023 RMK A01 T01890041  RH  038%=      5-min Rain = 0
KAM3 260000Z 12003KT 19/04 A3023 RMK A01 T01890042  RH  038%=      5-min Rain = 0
KAM3 260001Z 15002KT 19/04 A3023 RMK A01 T01890042  RH  038%=      5-min Rain = 0
KAM3 260002Z 10003KT 19/04 A3023 RMK A01 T01890041  RH  037%=      5-min Rain = 0
KAM3 260003Z 08005KT 19/05 A3023 RMK A01 T01890047  RH  039%=      5-min Rain = 0
KAM3 260004Z 10006KT 19/06 A3023 RMK A01 T01880062  RH  044%=      5-min Rain = 0
KAM3 260005Z 11007KT 19/06 A3023 RMK A01 T01860064  RH  045%=      5-min Rain = 0
KAM3 260006Z 10007KT 18/06 A3023 RMK A01 T01840063  RH  045%=      5-min Rain = 0
KAM3 260007Z 10009KT 18/07 A3023 RMK A01 T01830065  RH  046%=      5-min Rain = 0
KAM3 260008Z 09011KT 18/07 A3022 RMK A01 T01810068  RH  048%=      5-min Rain = 0
KAM3 260009Z 09010KT 18/07 A3022 RMK A01 T01790070  RH  049%=      5-min Rain = 0
KAM3 260010Z 09010KT 18/07 A3022 RMK A01 T01770069  RH  049%=      5-min Rain = 0
KAM3 260011Z 08010KT 18/07 A3022 RMK A01 T01760070  RH  050%=      5-min Rain = 0
KAM3 260012Z 08010KT 18/07 A3022 RMK A01 T01750072  RH  051%=      5-min Rain = 0
KAM3 260013Z 08011KT 17/07 A3022 RMK A01 T01740072  RH  051%=      5-min Rain = 0
KAM3 260014Z 08010KT 17/07 A3022 RMK A01 T01730073  RH  052%=      5-min Rain = 0
KAM3 260015Z 08008KT 17/07 A3022 RMK A01 T01730073  RH  052%=      5-min Rain = 0
KAM3 260016Z 08010KT 17/07 A3022 RMK A01 T01730073  RH  052%=      5-min Rain = 0
KAM3 260017Z 08009KT 17/07 A3022 RMK A01 T01720072  RH  052%=      5-min Rain = 0
KAM3 260018Z 08011KT 17/07 A3022 RMK A01 T01720073  RH  052%=      5-min Rain = 0
KAM3 260019Z 08011KT 17/07 A3022 RMK A01 T01710073  RH  052%=      5-min Rain = 0
KAM3 260020Z 08010KT 17/07 A3022 RMK A01 T01700073  RH  053%=      5-min Rain = 0
KAM3 260021Z 07011KT 17/07 A3022 RMK A01 T01690073  RH  053%=      5-min Rain = 0
KAM3 260022Z 08012KT 17/07 A3022 RMK A01 T01690074  RH  054%=      5-min Rain = 0
KAM3 260023Z 08010KT 17/07 A3022 RMK A01 T01680074  RH  054%=      5-min Rain = 0
KAM3 260024Z 08009KT 17/08 A3022 RMK A01 T01670075  RH  054%=      5-min Rain = 0
KAM3 260025Z 08009KT 17/07 A3022 RMK A01 T01660074  RH  054%=      5-min Rain = 0
KAM3 260026Z 08009KT 17/08 A3022 RMK A01 T01660075  RH  055%=      5-min Rain = 0
KAM3 260027Z 08010KT 17/08 A3022 RMK A01 T01650075  RH  055%=      5-min Rain = 0
KAM3 260028Z 07009KT 17/08 A3022 RMK A01 T01650075  RH  055%=      5-min Rain = 0
KAM3 260029Z 08009KT 17/08 A3022 RMK A01 T01650075  RH  055%=      5-min Rain = 0
KAM3 260030Z 09008KT 16/08 A3022 RMK A01 T01640076  RH  056%=      5-min Rain = 0
KAM3 260031Z 09008KT 16/08 A3022 RMK A01 T01640076  RH  056%=      5-min Rain = 0
KAM3 260032Z 08006KT 16/08 A3022 RMK A01 T01640076  RH  056%=      5-min Rain = 0
KAM3 260033Z 09009KT 16/08 A3022 RMK A01 T01630076  RH  056%=      5-min Rain = 0
KAM3 260034Z 09011KT 16/08 A3022 RMK A01 T01630075  RH  056%=      5-min Rain = 0
KAM3 260035Z 09011KT 16/08 A3022 RMK A01 T01630075  RH  056%=      5-min Rain = 0
KAM3 260036Z 09011KT 16/08 A3022 RMK A01 T01630075  RH  056%=      5-min Rain = 0
KAM3 260037Z 10008KT 16/08 A3022 RMK A01 T01620075  RH  056%=      5-min Rain = 0
KAM3 260038Z 10009KT 16/08 A3022 RMK A01 T01610075  RH  057%=      5-min Rain = 0
KAM3 260039Z 11009KT 16/08 A3022 RMK A01 T01610075  RH  057%=      5-min Rain = 0
KAM3 260040Z 10009KT 16/08 A3022 RMK A01 T01600075  RH  057%=      5-min Rain = 0
KAM3 260041Z 10009KT 16/08 A3022 RMK A01 T01600075  RH  057%=      5-min Rain = 0
KAM3 260042Z 10009KT 16/08 A3022 RMK A01 T01590075  RH  058%=      5-min Rain = 0
KAM3 260043Z 10008KT 16/08 A3022 RMK A01 T01580075  RH  058%=      5-min Rain = 0
KAM3 260044Z 10011KT 16/08 A3022 RMK A01 T01570075  RH  058%=      5-min Rain = 0
KAM3 260045Z 10012KT 16/07 A3022 RMK A01 T01570074  RH  058%=      5-min Rain = 0
KAM3 260046Z 10011KT 16/07 A3022 RMK A01 T01570074  RH  058%=      5-min Rain = 0
KAM3 260047Z 10011KT 16/07 A3022 RMK A01 T01570074  RH  058%=      5-min Rain = 0
KAM3 260048Z 10011KT 16/07 A3022 RMK A01 T01570074  RH  058%=      5-min Rain = 0
KAM3 260049Z 09010KT 16/07 A3022 RMK A01 T01560074  RH  058%=      5-min Rain = 0
KAM3 260050Z 10011KT 16/07 A3022 RMK A01 T01550074  RH  058%=      5-min Rain = 0
KAM3 260051Z 10013KT 16/07 A3022 RMK A01 T01550074  RH  058%=      5-min Rain = 0
KAM3 260052Z 09012KT 16/07 A3022 RMK A01 T01550074  RH  059%=      5-min Rain = 0
KAM3 260053Z 10011KT 16/08 A3022 RMK A01 T01550075  RH  059%=      5-min Rain = 0
KAM3 260054Z 10009KT 15/07 A3022 RMK A01 T01540074  RH  059%=      5-min Rain = 0
KAM3 260055Z 10010KT 15/07 A3022 RMK A01 T01530074  RH  059%=      5-min Rain = 0
KAM3 260056Z 10012KT 15/07 A3022 RMK A01 T01520074  RH  060%=      5-min Rain = 0
KAM3 260057Z 10009KT 15/08 A3022 RMK A01 T01520075  RH  060%=      5-min Rain = 0
KAM3 260058Z 10009KT 15/07 A3022 RMK A01 T01510074  RH  060%=      5-min Rain = 0
KAM3 260059Z 10008KT 15/07 A3022 RMK A01 T01500074  RH  060%=      5-min Rain = 0
KAM3 260100Z 10009KT 15/07 A3022 RMK A01 T01500074  RH  060%=      5-min Rain = 0
KAM3 260101Z 09009KT 15/07 A3022 RMK A01 T01490074  RH  061%=      5-min Rain = 0
KAM3 260102Z 10009KT 15/07 A3022 RMK A01 T01480074  RH  061%=      5-min Rain = 0
KAM3 260103Z 09010KT 15/08 A3022 RMK A01 T01480075  RH  061%=      5-min Rain = 0
KAM3 260104Z 09010KT 15/08 A3022 RMK A01 T01480075  RH  062%=      5-min Rain = 0
KAM3 260105Z 09010KT 15/08 A3022 RMK A01 T01480076  RH  062%=      5-min Rain = 0
KAM3 260106Z 09010KT 15/08 A3022 RMK A01 T01470076  RH  062%=      5-min Rain = 0
KAM3 260107Z 09010KT 15/08 A3022 RMK A01 T01470077  RH  063%=      5-min Rain = 0
KAM3 260108Z 09011KT 15/08 A3022 RMK A01 T01460077  RH  063%=      5-min Rain = 0
KAM3 260109Z 09010KT 15/08 A3022 RMK A01 T01450078  RH  064%=      5-min Rain = 0
KAM3 260110Z 09009KT 15/08 A3022 RMK A01 T01450078  RH  064%=      5-min Rain = 0
KAM3 260111Z 09010KT 14/08 A3022 RMK A01 T01440078  RH  065%=      5-min Rain = 0
KAM3 260112Z 09010KT 14/08 A3022 RMK A01 T01430078  RH  065%=      5-min Rain = 0
KAM3 260113Z 09009KT 14/08 A3022 RMK A01 T01420078  RH  065%=      5-min Rain = 0
KAM3 260114Z 10011KT 14/08 A3022 RMK A01 T01420079  RH  066%=      5-min Rain = 0
KAM3 260115Z 10011KT 14/08 A3022 RMK A01 T01420079  RH  066%=      5-min Rain = 0
KAM3 260116Z 10010KT 14/08 A3022 RMK A01 T01420079  RH  066%=      5-min Rain = 0
KAM3 260117Z 10010KT 14/08 A3022 RMK A01 T01410078  RH  066%=      5-min Rain = 0
KAM3 260118Z 09012KT 14/08 A3022 RMK A01 T01400079  RH  066%=      5-min Rain = 0
KAM3 260119Z 10011KT 14/08 A3022 RMK A01 T01400079  RH  067%=      5-min Rain = 0
KAM3 260120Z 10011KT 14/08 A3022 RMK A01 T01400079  RH  067%=      5-min Rain = 0
KAM3 260121Z 10012KT 14/08 A3022 RMK A01 T01400079  RH  066%=      5-min Rain = 0
KAM3 260122Z 10012KT 14/08 A3022 RMK A01 T01400079  RH  066%=      5-min Rain = 0
KAM3 260123Z 10011KT 14/08 A3022 RMK A01 T01390079  RH  067%=      5-min Rain = 0
KAM3 260124Z 09012KT 14/08 A3022 RMK A01 T01390079  RH  067%=      5-min Rain = 0
KAM3 260125Z 10010KT 14/08 A3022 RMK A01 T01390079  RH  067%=      5-min Rain = 0
KAM3 260126Z 10010KT 14/08 A3022 RMK A01 T01390078  RH  067%=      5-min Rain = 0
KAM3 260127Z 10011KT 14/08 A3022 RMK A01 T01380079  RH  067%=      5-min Rain = 0
KAM3 260128Z 10011KT 14/08 A3022 RMK A01 T01380078  RH  067%=      5-min Rain = 0
KAM3 260129Z 10010KT 14/08 A3022 RMK A01 T01380078  RH  067%=      5-min Rain = 0
KAM3 260130Z 10010KT 14/08 A3022 RMK A01 T01370078  RH  067%=      5-min Rain = 0
KAM3 260131Z 10010KT 14/08 A3022 RMK A01 T01370078  RH  068%=      5-min Rain = 0
KAM3 260132Z 10011KT 14/08 A3022 RMK A01 T01370078  RH  068%=      5-min Rain = 0
KAM3 260133Z 10011KT 14/08 A3022 RMK A01 T01370078  RH  068%=      5-min Rain = 0
KAM3 260134Z 11012KT 14/08 A3022 RMK A01 T01360078  RH  068%=      5-min Rain = 0
KAM3 260135Z 11013KT 14/08 A3022 RMK A01 T01360078  RH  068%=      5-min Rain = 0
KAM3 260136Z 10012KT 14/08 A3022 RMK A01 T01370078  RH  068%=      5-min Rain = 0
KAM3 260137Z 10011KT 14/08 A3022 RMK A01 T01370078  RH  068%=      5-min Rain = 0
KAM3 260138Z 10011KT 14/08 A3022 RMK A01 T01370078  RH  068%=      5-min Rain = 0
KAM3 260139Z 10011KT 14/08 A3022 RMK A01 T01360078  RH  068%=      5-min Rain = 0
KAM3 260140Z 10011KT 14/08 A3022 RMK A01 T01350079  RH  068%=      5-min Rain = 0
KAM3 260141Z 10011KT 14/08 A3022 RMK A01 T01350079  RH  069%=      5-min Rain = 0
KAM3 260142Z 10011KT 14/08 A3022 RMK A01 T01350079  RH  069%=      5-min Rain = 0
KAM3 260143Z 11011KT 14/08 A3022 RMK A01 T01350079  RH  069%=      5-min Rain = 0
KAM3 260144Z 11010KT 13/08 A3022 RMK A01 T01340078  RH  069%=      5-min Rain = 0
KAM3 260145Z 11010KT 13/08 A3023 RMK A01 T01340078  RH  069%=      5-min Rain = 0
KAM3 260146Z 11012KT 13/08 A3023 RMK A01 T01330078  RH  069%=      5-min Rain = 0
KAM3 260147Z 11011KT 13/08 A3022 RMK A01 T01330078  RH  069%=      5-min Rain = 0
KAM3 260148Z 11013KT 13/08 A3022 RMK A01 T01330078  RH  069%=      5-min Rain = 0
KAM3 260149Z 11011KT 13/08 A3022 RMK A01 T01330078  RH  069%=      5-min Rain = 0
KAM3 260150Z 11012KT 13/08 A3022 RMK A01 T01330078  RH  069%=      5-min Rain = 0
KAM3 260151Z 11012KT 13/08 A3022 RMK A01 T01340078  RH  069%=      5-min Rain = 0
KAM3 260152Z 11011KT 13/08 A3022 RMK A01 T01330077  RH  069%=      5-min Rain = 0
KAM3 260153Z 11012KT 13/08 A3022 RMK A01 T01330077  RH  069%=      5-min Rain = 0
KAM3 260154Z 11011KT 13/08 A3022 RMK A01 T01330077  RH  069%=      5-min Rain = 0
KAM3 260155Z 11010KT 13/08 A3023 RMK A01 T01330077  RH  069%=      5-min Rain = 0
KAM3 260156Z 11012KT 13/08 A3023 RMK A01 T01330077  RH  069%=      5-min Rain = 0
KAM3 260157Z 11012KT 13/08 A3023 RMK A01 T01320077  RH  069%=      5-min Rain = 0
KAM3 260158Z 11013KT 13/08 A3023 RMK A01 T01320077  RH  069%=      5-min Rain = 0
KAM3 260159Z 11011KT 13/08 A3023 RMK A01 T01320077  RH  069%=      5-min Rain = 0
KAM3 260200Z 11011KT 13/08 A3023 RMK A01 T01330077  RH  069%=      5-min Rain = 0
KAM3 260201Z 11010KT 13/08 A3023 RMK A01 T01320077  RH  069%=      5-min Rain = 0
KAM3 260202Z 11010KT 13/08 A3023 RMK A01 T01310076  RH  069%=      5-min Rain = 0
KAM3 260203Z 11010KT 13/08 A3023 RMK A01 T01300076  RH  070%=      5-min Rain = 0
KAM3 260204Z 11011KT 13/08 A3023 RMK A01 T01300076  RH  070%=      5-min Rain = 0
KAM3 260205Z 11010KT 13/08 A3023 RMK A01 T01290076  RH  070%=      5-min Rain = 0
KAM3 260206Z 11009KT 13/08 A3023 RMK A01 T01300076  RH  070%=      5-min Rain = 0
KAM3 260207Z 11010KT 13/08 A3023 RMK A01 T01280076  RH  070%=      5-min Rain = 0
KAM3 260208Z 11010KT 13/08 A3023 RMK A01 T01280076  RH  071%=      5-min Rain = 0
KAM3 260209Z 11009KT 13/08 A3023 RMK A01 T01280076  RH  071%=      5-min Rain = 0
KAM3 260210Z 11009KT 13/08 A3023 RMK A01 T01280076  RH  071%=      5-min Rain = 0
KAM3 260211Z 11009KT 13/08 A3023 RMK A01 T01270075  RH  071%=      5-min Rain = 0
KAM3 260212Z 11011KT 13/08 A3023 RMK A01 T01260075  RH  071%=      5-min Rain = 0
KAM3 260213Z 11011KT 13/08 A3023 RMK A01 T01260075  RH  071%=      5-min Rain = 0
KAM3 260214Z 11011KT 13/08 A3023 RMK A01 T01260075  RH  071%=      5-min Rain = 0
KAM3 260215Z 11011KT 13/08 A3023 RMK A01 T01260075  RH  071%=      5-min Rain = 0
KAM3 260216Z 11013KT 13/08 A3023 RMK A01 T01270075  RH  070%=      5-min Rain = 0
KAM3 260217Z 11010KT 13/08 A3023 RMK A01 T01280075  RH  070%=      5-min Rain = 0
KAM3 260218Z 11010KT 13/08 A3023 RMK A01 T01280075  RH  070%=      5-min Rain = 0
KAM3 260219Z 11010KT 13/08 A3023 RMK A01 T01280075  RH  070%=      5-min Rain = 0
KAM3 260220Z 11010KT 13/08 A3024 RMK A01 T01270075  RH  070%=      5-min Rain = 0
KAM3 260221Z 11010KT 13/08 A3024 RMK A01 T01270075  RH  070%=      5-min Rain = 0
KAM3 260222Z 11010KT 13/08 A3024 RMK A01 T01270075  RH  071%=      5-min Rain = 0
KAM3 260223Z 11010KT 13/08 A3024 RMK A01 T01260075  RH  071%=      5-min Rain = 0
KAM3 260224Z 11011KT 13/07 A3024 RMK A01 T01260074  RH  071%=      5-min Rain = 0
KAM3 260225Z 11011KT 13/08 A3024 RMK A01 T01260075  RH  071%=      5-min Rain = 0
KAM3 260226Z 11011KT 13/08 A3024 RMK A01 T01260075  RH  071%=      5-min Rain = 0
KAM3 260227Z 11011KT 13/07 A3024 RMK A01 T01250074  RH  071%=      5-min Rain = 0
KAM3 260228Z 11010KT 13/07 A3024 RMK A01 T01250074  RH  071%=      5-min Rain = 0
KAM3 260229Z 10010KT 13/07 A3024 RMK A01 T01250074  RH  071%=      5-min Rain = 0
KAM3 260230Z 11012KT 12/07 A3024 RMK A01 T01240074  RH  072%=      5-min Rain = 0
KAM3 260231Z 11010KT 12/08 A3024 RMK A01 T01240075  RH  072%=      5-min Rain = 0
KAM3 260232Z 11012KT 12/07 A3024 RMK A01 T01230074  RH  072%=      5-min Rain = 0
KAM3 260233Z 11010KT 12/07 A3024 RMK A01 T01230074  RH  072%=      5-min Rain = 0
KAM3 260234Z 11010KT 12/08 A3024 RMK A01 T01230075  RH  072%=      5-min Rain = 0
KAM3 260235Z 11010KT 12/07 A3024 RMK A01 T01230074  RH  072%=      5-min Rain = 0
KAM3 260236Z 11010KT 12/07 A3024 RMK A01 T01230074  RH  072%=      5-min Rain = 0
KAM3 260237Z 11009KT 12/07 A3024 RMK A01 T01220074  RH  072%=      5-min Rain = 0
KAM3 260238Z 11010KT 12/07 A3024 RMK A01 T01210074  RH  073%=      5-min Rain = 0
KAM3 260239Z 11009KT 12/07 A3024 RMK A01 T01210074  RH  073%=      5-min Rain = 0
KAM3 260240Z 12009KT 12/07 A3024 RMK A01 T01210074  RH  073%=      5-min Rain = 0
KAM3 260241Z 12009KT 12/07 A3024 RMK A01 T01210074  RH  073%=      5-min Rain = 0
KAM3 260242Z 12009KT 12/07 A3024 RMK A01 T01210074  RH  073%=      5-min Rain = 0
KAM3 260243Z 12008KT 12/07 A3024 RMK A01 T01200074  RH  073%=      5-min Rain = 0
KAM3 260244Z 12009KT 12/07 A3024 RMK A01 T01190074  RH  074%=      5-min Rain = 0
KAM3 260245Z 12008KT 12/07 A3024 RMK A01 T01190074  RH  074%=      5-min Rain = 0
KAM3 260246Z 12009KT 12/07 A3024 RMK A01 T01190074  RH  074%=      5-min Rain = 0
KAM3 260247Z 12009KT 12/07 A3024 RMK A01 T01180074  RH  074%=      5-min Rain = 0
KAM3 260248Z 12009KT 12/07 A3024 RMK A01 T01180074  RH  074%=      5-min Rain = 0
KAM3 260249Z 12010KT 12/07 A3024 RMK A01 T01180074  RH  074%=      5-min Rain = 0
KAM3 260250Z 12009KT 12/07 A3024 RMK A01 T01180074  RH  074%=      5-min Rain = 0
KAM3 260251Z 12009KT 12/07 A3025 RMK A01 T01190074  RH  074%=      5-min Rain = 0
KAM3 260252Z 12009KT 12/07 A3025 RMK A01 T01180074  RH  074%=      5-min Rain = 0
KAM3 260253Z 12010KT 12/07 A3025 RMK A01 T01180074  RH  074%=      5-min Rain = 0
KAM3 260254Z 12011KT 12/07 A3025 RMK A01 T01180074  RH  074%=      5-min Rain = 0
KAM3 260255Z 12011KT 12/07 A3025 RMK A01 T01180073  RH  074%=      5-min Rain = 0
KAM3 260256Z 12010KT 12/07 A3025 RMK A01 T01190074  RH  074%=      5-min Rain = 0
KAM3 260257Z 12009KT 12/07 A3025 RMK A01 T01190074  RH  074%=      5-min Rain = 0
KAM3 260258Z 12009KT 12/07 A3025 RMK A01 T01180073  RH  074%=      5-min Rain = 0
KAM3 260259Z 12009KT 12/07 A3025 RMK A01 T01180073  RH  074%=      5-min Rain = 0
KAM3 260300Z 12009KT 12/07 A3025 RMK A01 T01180073  RH  074%=      5-min Rain = 0
KAM3 260301Z 13008KT 12/07 A3025 RMK A01 T01180073  RH  074%=      5-min Rain = 0
KAM3 260302Z 13008KT 12/07 A3025 RMK A01 T01170073  RH  074%=      5-min Rain = 0
KAM3 260303Z 12008KT 12/07 A3025 RMK A01 T01170073  RH  074%=      5-min Rain = 0
KAM3 260304Z 13009KT 12/07 A3025 RMK A01 T01170072  RH  074%=      5-min Rain = 0
KAM3 260305Z 13010KT 12/07 A3025 RMK A01 T01170072  RH  074%=      5-min Rain = 0
KAM3 260306Z 12010KT 12/07 A3025 RMK A01 T01180072  RH  074%=      5-min Rain = 0
KAM3 260307Z 13009KT 12/07 A3025 RMK A01 T01180072  RH  073%=      5-min Rain = 0
KAM3 260308Z 13010KT 12/07 A3025 RMK A01 T01180072  RH  073%=      5-min Rain = 0
KAM3 260309Z 13011KT 12/07 A3025 RMK A01 T01180071  RH  073%=      5-min Rain = 0
KAM3 260310Z 13009KT 12/07 A3025 RMK A01 T01190071  RH  072%=      5-min Rain = 0
KAM3 260311Z 13009KT 12/07 A3025 RMK A01 T01190071  RH  072%=      5-min Rain = 0
KAM3 260312Z 13009KT 12/07 A3025 RMK A01 T01190070  RH  072%=      5-min Rain = 0
KAM3 260313Z 13010KT 12/07 A3026 RMK A01 T01190070  RH  072%=      5-min Rain = 0
KAM3 260314Z 13010KT 12/07 A3026 RMK A01 T01200070  RH  071%=      5-min Rain = 0
KAM3 260315Z 12010KT 12/07 A3026 RMK A01 T01200069  RH  071%=      5-min Rain = 0
KAM3 260316Z 13011KT 12/07 A3026 RMK A01 T01200069  RH  071%=      5-min Rain = 0
KAM3 260317Z 12010KT 12/07 A3026 RMK A01 T01200069  RH  071%=      5-min Rain = 0
KAM3 260318Z 12009KT 12/07 A3026 RMK A01 T01200069  RH  071%=      5-min Rain = 0
KAM3 260319Z 13008KT 12/07 A3026 RMK A01 T01200069  RH  071%=      5-min Rain = 0
KAM3 260320Z 12009KT 12/07 A3026 RMK A01 T01200068  RH  071%=      5-min Rain = 0
KAM3 260321Z 12010KT 12/07 A3026 RMK A01 T01190068  RH  071%=      5-min Rain = 0
KAM3 260322Z 13009KT 12/07 A3026 RMK A01 T01190067  RH  071%=      5-min Rain = 0
KAM3 260323Z 12009KT 12/07 A3026 RMK A01 T01200067  RH  070%=      5-min Rain = 0
KAM3 260324Z 13009KT 12/07 A3026 RMK A01 T01200067  RH  070%=      5-min Rain = 0
KAM3 260325Z 13009KT 12/07 A3026 RMK A01 T01190067  RH  070%=      5-min Rain = 0
KAM3 260326Z 13009KT 12/07 A3026 RMK A01 T01200067  RH  070%=      5-min Rain = 0
KAM3 260327Z 13009KT 12/07 A3026 RMK A01 T01190067  RH  070%=      5-min Rain = 0
KAM3 260328Z 13009KT 12/07 A3026 RMK A01 T01190067  RH  070%=      5-min Rain = 0
KAM3 260329Z 13009KT 12/07 A3026 RMK A01 T01190067  RH  070%=      5-min Rain = 0
KAM3 260330Z 13008KT 12/07 A3026 RMK A01 T01190067  RH  071%=      5-min Rain = 0
KAM3 260331Z 13008KT 12/07 A3026 RMK A01 T01180067  RH  071%=      5-min Rain = 0
KAM3 260332Z 13008KT 12/07 A3026 RMK A01 T01180067  RH  071%=      5-min Rain = 0
KAM3 260333Z 13009KT 12/07 A3026 RMK A01 T01170066  RH  071%=      5-min Rain = 0
KAM3 260334Z 13011KT 12/07 A3026 RMK A01 T01170067  RH  071%=      5-min Rain = 0
KAM3 260335Z 13010KT 12/07 A3026 RMK A01 T01180067  RH  071%=      5-min Rain = 0
KAM3 260336Z 13011KT 12/07 A3026 RMK A01 T01180067  RH  071%=      5-min Rain = 0
KAM3 260337Z 13010KT 12/07 A3027 RMK A01 T01190067  RH  070%=      5-min Rain = 0
KAM3 260338Z 13011KT 12/07 A3027 RMK A01 T01200067  RH  070%=      5-min Rain = 0
KAM3 260339Z 13010KT 12/07 A3027 RMK A01 T01190066  RH  070%=      5-min Rain = 0
KAM3 260340Z 13009KT 12/07 A3027 RMK A01 T01190066  RH  070%=      5-min Rain = 0
KAM3 260341Z 13008KT 12/07 A3027 RMK A01 T01190066  RH  070%=      5-min Rain = 0
KAM3 260342Z 13008KT 12/07 A3027 RMK A01 T01180066  RH  070%=      5-min Rain = 0
KAM3 260343Z 12007KT 12/07 A3027 RMK A01 T01170065  RH  071%=      5-min Rain = 0
KAM3 260344Z 12009KT 12/07 A3027 RMK A01 T01160066  RH  071%=      5-min Rain = 0
KAM3 260345Z 12011KT 12/07 A3027 RMK A01 T01160066  RH  071%=      5-min Rain = 0
KAM3 260346Z 12010KT 12/07 A3027 RMK A01 T01170066  RH  071%=      5-min Rain = 0
KAM3 260347Z 12009KT 12/07 A3027 RMK A01 T01170066  RH  071%=      5-min Rain = 0
KAM3 260348Z 12008KT 12/07 A3027 RMK A01 T01160066  RH  071%=      5-min Rain = 0
KAM3 260349Z 12010KT 12/07 A3027 RMK A01 T01150066  RH  071%=      5-min Rain = 0
KAM3 260350Z 12007KT 12/07 A3027 RMK A01 T01160066  RH  071%=      5-min Rain = 0
KAM3 260351Z 13009KT 12/07 A3027 RMK A01 T01160066  RH  071%=      5-min Rain = 0
KAM3 260352Z 13008KT 12/07 A3027 RMK A01 T01150066  RH  072%=      5-min Rain = 0
KAM3 260353Z 12007KT 12/07 A3027 RMK A01 T01150065  RH  072%=      5-min Rain = 0
KAM3 260354Z 13009KT 12/07 A3028 RMK A01 T01150066  RH  072%=      5-min Rain = 0
KAM3 260355Z 13009KT 11/07 A3028 RMK A01 T01140065  RH  072%=      5-min Rain = 0
KAM3 260356Z 13008KT 12/07 A3028 RMK A01 T01150065  RH  072%=      5-min Rain = 0
KAM3 260357Z 13008KT 12/07 A3028 RMK A01 T01150066  RH  072%=      5-min Rain = 0
KAM3 260358Z 13008KT 12/07 A3028 RMK A01 T01150066  RH  072%=      5-min Rain = 0
KAM3 260359Z 13008KT 11/07 A3028 RMK A01 T01140065  RH  072%=      5-min Rain = 0
KAM3 260400Z 13008KT 11/07 A3028 RMK A01 T01130065  RH  072%=      5-min Rain = 0
KAM3 260401Z 13010KT 11/07 A3028 RMK A01 T01120065  RH  073%=      5-min Rain = 0
KAM3 260402Z 13007KT 11/07 A3028 RMK A01 T01120066  RH  073%=      5-min Rain = 0
KAM3 260403Z 13008KT 11/07 A3028 RMK A01 T01130066  RH  073%=      5-min Rain = 0
KAM3 260404Z 13007KT 11/07 A3028 RMK A01 T01120065  RH  073%=      5-min Rain = 0
KAM3 260405Z 13007KT 11/07 A3028 RMK A01 T01100065  RH  074%=      5-min Rain = 0
KAM3 260406Z 12007KT 11/07 A3028 RMK A01 T01090065  RH  074%=      5-min Rain = 0
KAM3 260407Z 12008KT 11/07 A3028 RMK A01 T01090065  RH  074%=      5-min Rain = 0
KAM3 260408Z 13008KT 11/07 A3028 RMK A01 T01080065  RH  074%=      5-min Rain = 0
KAM3 260409Z 13008KT 11/07 A3028 RMK A01 T01090065  RH  074%=      5-min Rain = 0
KAM3 260410Z 13007KT 11/07 A3028 RMK A01 T01090065  RH  074%=      5-min Rain = 0
KAM3 260411Z 12008KT 11/07 A3028 RMK A01 T01090065  RH  074%=      5-min Rain = 0
KAM3 260412Z 12008KT 11/07 A3028 RMK A01 T01090065  RH  075%=      5-min Rain = 0
KAM3 260413Z 12007KT 11/07 A3029 RMK A01 T01080065  RH  075%=      5-min Rain = 0
KAM3 260414Z 12007KT 11/06 A3029 RMK A01 T01070064  RH  075%=      5-min Rain = 0
KAM3 260415Z 12007KT 11/06 A3029 RMK A01 T01060064  RH  075%=      5-min Rain = 0
KAM3 260416Z 12006KT 11/06 A3029 RMK A01 T01060064  RH  075%=      5-min Rain = 0
KAM3 260417Z 12006KT 11/06 A3029 RMK A01 T01050064  RH  075%=      5-min Rain = 0
KAM3 260418Z 12006KT 11/06 A3029 RMK A01 T01050064  RH  075%=      5-min Rain = 0
KAM3 260419Z 12007KT 11/06 A3029 RMK A01 T01050063  RH  076%=      5-min Rain = 0
KAM3 260420Z 12006KT 10/06 A3029 RMK A01 T01040064  RH  076%=      5-min Rain = 0
KAM3 260421Z 12007KT 10/06 A3029 RMK A01 T01040064  RH  076%=      5-min Rain = 0
KAM3 260422Z 12007KT 10/06 A3029 RMK A01 T01040063  RH  076%=      5-min Rain = 0
KAM3 260423Z 12007KT 10/06 A3029 RMK A01 T01030064  RH  076%=      5-min Rain = 0
KAM3 260424Z 12006KT 10/06 A3029 RMK A01 T01030063  RH  076%=      5-min Rain = 0
KAM3 260425Z 12006KT 10/06 A3029 RMK A01 T01030063  RH  076%=      5-min Rain = 0
KAM3 260426Z 13006KT 10/06 A3029 RMK A01 T01010063  RH  077%=      5-min Rain = 0
KAM3 260427Z 13006KT 10/06 A3029 RMK A01 T01010063  RH  077%=      5-min Rain = 0
KAM3 260428Z 13006KT 10/06 A3029 RMK A01 T01000062  RH  077%=      5-min Rain = 0
KAM3 260429Z 13007KT 10/06 A3029 RMK A01 T01000063  RH  078%=      5-min Rain = 0
KAM3 260430Z 13006KT 10/06 A3029 RMK A01 T01000063  RH  078%=      5-min Rain = 0
KAM3 260431Z 13006KT 10/06 A3029 RMK A01 T01000063  RH  078%=      5-min Rain = 0
KAM3 260432Z 13007KT 10/06 A3029 RMK A01 T01000063  RH  078%=      5-min Rain = 0
KAM3 260433Z 13008KT 10/06 A3029 RMK A01 T01010064  RH  078%=      5-min Rain = 0
KAM3 260434Z 13008KT 10/06 A3029 RMK A01 T01020064  RH  077%=      5-min Rain = 0
KAM3 260435Z 13008KT 10/06 A3029 RMK A01 T01030064  RH  077%=      5-min Rain = 0
KAM3 260436Z 12008KT 10/06 A3029 RMK A01 T01040064  RH  077%=      5-min Rain = 0
KAM3 260437Z 12008KT 10/06 A3029 RMK A01 T01030064  RH  077%=      5-min Rain = 0
KAM3 260438Z 12010KT 10/06 A3029 RMK A01 T01030064  RH  077%=      5-min Rain = 0
KAM3 260439Z 12010KT 10/06 A3029 RMK A01 T01030064  RH  077%=      5-min Rain = 0
KAM3 260440Z 12009KT 10/06 A3029 RMK A01 T01030064  RH  077%=      5-min Rain = 0
KAM3 260441Z 12008KT 10/06 A3029 RMK A01 T01030064  RH  077%=      5-min Rain = 0
KAM3 260442Z 12009KT 10/06 A3029 RMK A01 T01030064  RH  077%=      5-min Rain = 0
KAM3 260443Z 12007KT 10/06 A3029 RMK A01 T01030064  RH  077%=      5-min Rain = 0
KAM3 260444Z 12007KT 10/06 A3029 RMK A01 T01030064  RH  077%=      5-min Rain = 0
KAM3 260445Z 11007KT 10/06 A3029 RMK A01 T01020064  RH  077%=      5-min Rain = 0
KAM3 260446Z 11007KT 10/06 A3029 RMK A01 T01010063  RH  077%=      5-min Rain = 0
KAM3 260447Z 11009KT 10/06 A3029 RMK A01 T01010064  RH  078%=      5-min Rain = 0
KAM3 260448Z 12009KT 10/06 A3029 RMK A01 T01020064  RH  077%=      5-min Rain = 0
KAM3 260449Z 13011KT 10/06 A3029 RMK A01 T01040064  RH  076%=      5-min Rain = 0
KAM3 260450Z 12010KT 11/07 A3029 RMK A01 T01050065  RH  076%=      5-min Rain = 0
KAM3 260451Z 12008KT 11/06 A3029 RMK A01 T01060064  RH  076%=      5-min Rain = 0
KAM3 260452Z 12008KT 11/06 A3029 RMK A01 T01050064  RH  075%=      5-min Rain = 0
KAM3 260453Z 13007KT 10/06 A3029 RMK A01 T01040063  RH  076%=      5-min Rain = 0
KAM3 260454Z 13008KT 10/06 A3029 RMK A01 T01030063  RH  076%=      5-min Rain = 0
KAM3 260455Z 13008KT 10/06 A3029 RMK A01 T01020063  RH  077%=      5-min Rain = 0
KAM3 260456Z 13010KT 10/06 A303 RMK A01 T01010064  RH  077%=      5-min Rain = 0
KAM3 260457Z 13009KT 10/06 A303 RMK A01 T01020064  RH  077%=      5-min Rain = 0
KAM3 260458Z 13008KT 10/06 A303 RMK A01 T01010063  RH  077%=      5-min Rain = 0
KAM3 260459Z 13009KT 10/06 A303 RMK A01 T01010064  RH  077%=      5-min Rain = 0

Page generated in 0.0698 seconds.